DAL1011 OMDB-ZBAA
Flight info
| Callsign | DAL1011 |
|---|---|
| Flight time | 7h 14m |
| Altitude | 33000 |
| Route | DAVMO4F DAVMO M318 KHM A453 ZDN G452 SOKIR/N0490F350 G452 KALAT G325 PURPA/K0889S1070 B215 MAGIV W187 PEBGO/K0883S1130 W187 IBANO B215 NUKTI W66 DKO W69 GUVBA GUVBA9Y |
| Aircraft | L101/H-SDFGHIRWXY/S |
Departure
| Time | 2026-05-07 16:09 |
|---|---|
| Airport | Dubai International Airport (OMDB) |
Arrival
| Time | 2026-05-07 23:23 |
|---|---|
| Airport | Beijing Capital International Airport (ZBAA) |
| Time | Latitude | Longitude | Altitude | Speed | Heading |
|---|---|---|---|---|---|
| 2026-05-07 15:41 | 25.25156 | 55.35779 | 26 ft | 0 kts | 211° |
| 2026-05-07 15:52 | 25.25171 | 55.35789 | 31 ft | 3 kts | 211° |
| 2026-05-07 15:52 | 25.25186 | 55.35800 | 32 ft | 3 kts | 211° |
| 2026-05-07 15:52 | 25.25201 | 55.35810 | 29 ft | 3 kts | 211° |
| 2026-05-07 15:53 | 25.25216 | 55.35820 | 32 ft | 3 kts | 211° |
| 2026-05-07 15:53 | 25.25233 | 55.35829 | 30 ft | 3 kts | 174° |
| 2026-05-07 15:53 | 25.25248 | 55.35822 | 32 ft | 1 kts | 126° |
| 2026-05-07 15:55 | 25.25248 | 55.35823 | 26 ft | 0 kts | 123° |
| 2026-05-07 15:55 | 25.25248 | 55.35824 | 29 ft | 0 kts | 119° |
| 2026-05-07 15:55 | 25.25246 | 55.35833 | 29 ft | 4 kts | 104° |
| 2026-05-07 15:55 | 25.25239 | 55.35863 | 30 ft | 2 kts | 106° |
| 2026-05-07 15:56 | 25.25224 | 55.35892 | 30 ft | 8 kts | 121° |
| 2026-05-07 15:56 | 25.25179 | 55.35973 | 28 ft | 15 kts | 122° |
| 2026-05-07 15:56 | 25.25121 | 55.36077 | 28 ft | 17 kts | 122° |
| 2026-05-07 15:56 | 25.25057 | 55.36189 | 30 ft | 18 kts | 122° |
| 2026-05-07 15:57 | 25.24986 | 55.36313 | 31 ft | 20 kts | 122° |
| 2026-05-07 15:57 | 25.24911 | 55.36448 | 30 ft | 21 kts | 121° |
| 2026-05-07 15:57 | 25.24832 | 55.36590 | 28 ft | 22 kts | 120° |
| 2026-05-07 15:57 | 25.24779 | 55.36753 | 26 ft | 23 kts | 104° |
| 2026-05-07 15:58 | 25.24713 | 55.36917 | 31 ft | 24 kts | 121° |
| 2026-05-07 15:58 | 25.24625 | 55.37073 | 31 ft | 24 kts | 122° |
| 2026-05-07 15:58 | 25.24534 | 55.37235 | 28 ft | 26 kts | 122° |
| 2026-05-07 15:58 | 25.24470 | 55.37350 | 30 ft | 0 kts | 121° |
| 2026-05-07 15:59 | 25.24468 | 55.37354 | 30 ft | 0 kts | 121° |
| 2026-05-07 15:59 | 25.24464 | 55.37362 | 31 ft | 3 kts | 121° |
| 2026-05-07 15:59 | 25.24425 | 55.37430 | 29 ft | 17 kts | 121° |
| 2026-05-07 15:59 | 25.24360 | 55.37548 | 30 ft | 19 kts | 121° |
| 2026-05-07 16:00 | 25.24305 | 55.37651 | 27 ft | 13 kts | 104° |
| 2026-05-07 16:00 | 25.24349 | 55.37717 | 31 ft | 10 kts | 34° |
| 2026-05-07 16:00 | 25.24393 | 55.37750 | 26 ft | 0 kts | 34° |
| 2026-05-07 16:02 | 25.24394 | 55.37751 | 26 ft | 0 kts | 34° |
| 2026-05-07 16:04 | 25.24397 | 55.37752 | 26 ft | 1 kts | 34° |
| 2026-05-07 16:04 | 25.24421 | 55.37771 | 25 ft | 10 kts | 34° |
| 2026-05-07 16:04 | 25.24482 | 55.37816 | 28 ft | 11 kts | 34° |
| 2026-05-07 16:04 | 25.24548 | 55.37865 | 29 ft | 12 kts | 34° |
| 2026-05-07 16:05 | 25.24616 | 55.37924 | 28 ft | 12 kts | 55° |
| 2026-05-07 16:05 | 25.24615 | 55.37999 | 28 ft | 10 kts | 112° |
| 2026-05-07 16:05 | 25.24577 | 55.38066 | 28 ft | 11 kts | 123° |
| 2026-05-07 16:05 | 25.24534 | 55.38145 | 27 ft | 13 kts | 121° |
| 2026-05-07 16:06 | 25.24483 | 55.38235 | 27 ft | 7 kts | 122° |
| 2026-05-07 16:06 | 25.24484 | 55.38241 | 27 ft | 3 kts | 81° |
| 2026-05-07 16:06 | 25.24509 | 55.38260 | 27 ft | 6 kts | 37° |
| 2026-05-07 16:06 | 25.24519 | 55.38268 | 27 ft | 0 kts | 37° |
| 2026-05-07 16:07 | 25.24521 | 55.38269 | 27 ft | 1 kts | 35° |
| 2026-05-07 16:07 | 25.24552 | 55.38291 | 27 ft | 13 kts | 32° |
| 2026-05-07 16:07 | 25.24632 | 55.38321 | 26 ft | 10 kts | 341° |
| 2026-05-07 16:07 | 25.24652 | 55.38300 | 27 ft | 0 kts | 302° |
| 2026-05-07 16:08 | 25.24757 | 55.38112 | 30 ft | 68 kts | 302° |
| 2026-05-07 16:08 | 25.25139 | 55.37418 | 32 ft | 140 kts | 302° |
| 2026-05-07 16:08 | 25.25741 | 55.36318 | 103 ft | 192 kts | 301° |
| 2026-05-07 16:09 | 25.26534 | 55.34982 | 505 ft | 218 kts | 304° |
| 2026-05-07 16:09 | 25.27378 | 55.33567 | 1234 ft | 233 kts | 302° |
| 2026-05-07 16:09 | 25.28461 | 55.32153 | 2109 ft | 255 kts | 320° |
| 2026-05-07 16:09 | 25.30066 | 55.31203 | 3185 ft | 269 kts | 339° |
| 2026-05-07 16:10 | 25.31897 | 55.30644 | 4344 ft | 277 kts | 348° |
| 2026-05-07 16:10 | 25.33810 | 55.30295 | 5533 ft | 282 kts | 353° |
| 2026-05-07 16:10 | 25.35784 | 55.30098 | 6694 ft | 285 kts | 356° |
| 2026-05-07 16:10 | 25.37759 | 55.30048 | 7845 ft | 288 kts | 4° |
| 2026-05-07 16:11 | 25.39734 | 55.30432 | 9025 ft | 290 kts | 14° |
| 2026-05-07 16:11 | 25.41653 | 55.31112 | 10226 ft | 289 kts | 19° |
| 2026-05-07 16:11 | 25.43538 | 55.31853 | 11391 ft | 285 kts | 20° |
| 2026-05-07 16:11 | 25.45387 | 55.32609 | 12597 ft | 280 kts | 22° |
| 2026-05-07 16:12 | 25.47173 | 55.33389 | 13816 ft | 272 kts | 23° |
| 2026-05-07 16:12 | 25.48905 | 55.34148 | 14869 ft | 265 kts | 22° |
| 2026-05-07 16:12 | 25.50635 | 55.34890 | 15850 ft | 262 kts | 22° |
| 2026-05-07 16:12 | 25.52333 | 55.35628 | 16700 ft | 263 kts | 22° |
| 2026-05-07 16:13 | 25.54084 | 55.36411 | 17241 ft | 279 kts | 23° |
| 2026-05-07 16:13 | 25.55911 | 55.37271 | 17751 ft | 293 kts | 26° |
| 2026-05-07 16:13 | 25.57712 | 55.38367 | 18255 ft | 297 kts | 33° |
| 2026-05-07 16:13 | 25.59440 | 55.39648 | 18708 ft | 301 kts | 35° |
| 2026-05-07 16:14 | 25.61177 | 55.40973 | 19167 ft | 305 kts | 34° |
| 2026-05-07 16:14 | 25.62946 | 55.42292 | 19626 ft | 308 kts | 34° |
| 2026-05-07 16:14 | 25.64731 | 55.43622 | 20104 ft | 311 kts | 35° |
| 2026-05-07 16:14 | 25.66459 | 55.45097 | 20588 ft | 314 kts | 41° |
| 2026-05-07 16:15 | 25.68078 | 55.46739 | 21054 ft | 317 kts | 44° |
| 2026-05-07 16:15 | 25.69689 | 55.48414 | 21556 ft | 320 kts | 43° |
| 2026-05-07 16:15 | 25.71344 | 55.50085 | 22055 ft | 323 kts | 42° |
| 2026-05-07 16:15 | 25.73027 | 55.51766 | 22581 ft | 327 kts | 42° |
| 2026-05-07 16:16 | 25.74709 | 55.53471 | 23089 ft | 330 kts | 43° |
| 2026-05-07 16:16 | 25.76395 | 55.55215 | 23572 ft | 334 kts | 43° |
| 2026-05-07 16:16 | 25.78100 | 55.56996 | 24014 ft | 338 kts | 43° |
| 2026-05-07 16:16 | 25.79819 | 55.58796 | 24461 ft | 341 kts | 42° |
| 2026-05-07 16:17 | 25.81551 | 55.60609 | 24913 ft | 345 kts | 42° |
| 2026-05-07 16:17 | 25.83310 | 55.62450 | 25372 ft | 349 kts | 41° |
| 2026-05-07 16:17 | 25.85146 | 55.64220 | 25840 ft | 352 kts | 34° |
| 2026-05-07 16:17 | 25.87194 | 55.65794 | 26313 ft | 355 kts | 30° |
| 2026-05-07 16:18 | 25.89291 | 55.67271 | 26807 ft | 359 kts | 30° |
| 2026-05-07 16:18 | 25.91396 | 55.68789 | 27307 ft | 363 kts | 30° |
| 2026-05-07 16:18 | 25.93502 | 55.70344 | 27791 ft | 367 kts | 30° |
| 2026-05-07 16:18 | 25.95648 | 55.71918 | 28313 ft | 371 kts | 29° |
| 2026-05-07 16:19 | 25.97823 | 55.73484 | 28827 ft | 374 kts | 28° |
| 2026-05-07 16:19 | 26.00025 | 55.75048 | 29354 ft | 378 kts | 28° |
| 2026-05-07 16:19 | 26.02264 | 55.76632 | 29884 ft | 382 kts | 27° |
| 2026-05-07 16:19 | 26.04605 | 55.77987 | 30289 ft | 378 kts | 11° |
| 2026-05-07 16:20 | 26.07132 | 55.78508 | 30664 ft | 365 kts | 355° |
| 2026-05-07 16:20 | 26.09668 | 55.78543 | 31082 ft | 367 kts | 354° |
| 2026-05-07 16:20 | 26.12248 | 55.78605 | 31525 ft | 372 kts | 356° |
| 2026-05-07 16:20 | 26.14843 | 55.78712 | 32022 ft | 375 kts | 354° |
| 2026-05-07 16:21 | 26.17466 | 55.78737 | 32468 ft | 377 kts | 353° |
| 2026-05-07 16:21 | 26.20115 | 55.78831 | 32661 ft | 387 kts | 0° |
| 2026-05-07 16:21 | 26.22799 | 55.79307 | 32734 ft | 392 kts | 6° |
| 2026-05-07 16:22 | 26.28138 | 55.80658 | 32762 ft | 394 kts | 5° |
| 2026-05-07 16:22 | 26.30868 | 55.81256 | 32788 ft | 407 kts | 4° |
| 2026-05-07 16:22 | 26.33710 | 55.81824 | 32808 ft | 424 kts | 4° |
| 2026-05-07 16:22 | 26.36670 | 55.82415 | 32813 ft | 441 kts | 4° |
| 2026-05-07 16:23 | 26.39744 | 55.83048 | 32805 ft | 458 kts | 5° |
| 2026-05-07 16:23 | 26.42965 | 55.83727 | 32793 ft | 474 kts | 5° |
| 2026-05-07 16:23 | 26.46227 | 55.84420 | 32806 ft | 479 kts | 5° |
| 2026-05-07 16:24 | 26.52817 | 55.85818 | 32794 ft | 483 kts | 5° |
| 2026-05-07 16:24 | 26.59424 | 55.87210 | 32789 ft | 483 kts | 5° |
| 2026-05-07 16:25 | 26.66021 | 55.88595 | 32788 ft | 483 kts | 5° |
| 2026-05-07 16:25 | 26.72616 | 55.90122 | 32764 ft | 488 kts | 14° |
| 2026-05-07 16:25 | 26.75692 | 55.91775 | 32766 ft | 497 kts | 32° |
| 2026-05-07 16:26 | 26.78389 | 55.94227 | 32803 ft | 503 kts | 38° |
| 2026-05-07 16:26 | 26.83702 | 55.99367 | 32787 ft | 505 kts | 36° |
| 2026-05-07 16:27 | 26.89042 | 56.04493 | 32781 ft | 506 kts | 38° |
| 2026-05-07 16:27 | 26.94217 | 56.09868 | 32780 ft | 507 kts | 39° |
| 2026-05-07 16:28 | 26.99350 | 56.15291 | 32774 ft | 507 kts | 39° |
| 2026-05-07 16:28 | 27.04507 | 56.20744 | 32782 ft | 508 kts | 39° |
| 2026-05-07 16:29 | 27.09700 | 56.26168 | 32784 ft | 508 kts | 39° |
| 2026-05-07 16:29 | 27.14867 | 56.31584 | 32790 ft | 508 kts | 39° |
| 2026-05-07 16:30 | 27.19622 | 56.37486 | 32780 ft | 514 kts | 55° |
| 2026-05-07 16:30 | 27.23304 | 56.44351 | 32785 ft | 516 kts | 54° |
| 2026-05-07 16:31 | 27.27220 | 56.51117 | 32792 ft | 517 kts | 54° |
| 2026-05-07 16:31 | 27.30399 | 56.56873 | 32796 ft | 517 kts | 56° |
| 2026-05-07 16:32 | 27.34097 | 56.63819 | 32809 ft | 517 kts | 56° |
| 2026-05-07 16:32 | 27.37794 | 56.70766 | 32805 ft | 517 kts | 56° |
| 2026-05-07 16:33 | 27.41478 | 56.77718 | 32828 ft | 517 kts | 56° |
| 2026-05-07 16:33 | 27.45189 | 56.84739 | 32833 ft | 519 kts | 56° |
| 2026-05-07 16:34 | 27.48868 | 56.91718 | 32826 ft | 518 kts | 56° |
| 2026-05-07 16:34 | 27.52597 | 56.98799 | 32842 ft | 518 kts | 56° |
| 2026-05-07 16:35 | 27.56033 | 57.05324 | 32825 ft | 518 kts | 56° |
| 2026-05-07 16:35 | 27.59737 | 57.12345 | 32838 ft | 518 kts | 56° |
| 2026-05-07 16:36 | 27.63401 | 57.19335 | 32836 ft | 518 kts | 56° |
| 2026-05-07 16:36 | 27.67060 | 57.26334 | 32824 ft | 518 kts | 56° |
| 2026-05-07 16:37 | 27.70721 | 57.33344 | 32840 ft | 518 kts | 56° |
| 2026-05-07 16:37 | 27.74368 | 57.40352 | 32853 ft | 518 kts | 56° |
| 2026-05-07 16:38 | 27.77992 | 57.47382 | 32852 ft | 518 kts | 56° |
| 2026-05-07 16:38 | 27.81645 | 57.54399 | 32846 ft | 518 kts | 56° |
| 2026-05-07 16:39 | 27.85323 | 57.61458 | 32832 ft | 518 kts | 56° |
| 2026-05-07 16:39 | 27.88954 | 57.68432 | 32836 ft | 518 kts | 56° |
| 2026-05-07 16:40 | 27.92627 | 57.75491 | 32839 ft | 518 kts | 56° |
| 2026-05-07 16:40 | 27.96280 | 57.82526 | 32797 ft | 519 kts | 56° |
| 2026-05-07 16:41 | 27.99928 | 57.89563 | 32808 ft | 519 kts | 56° |
| 2026-05-07 16:41 | 28.03578 | 57.96617 | 32799 ft | 519 kts | 56° |
| 2026-05-07 16:42 | 28.07224 | 58.03674 | 32805 ft | 519 kts | 56° |
| 2026-05-07 16:42 | 28.10894 | 58.10785 | 32803 ft | 519 kts | 56° |
| 2026-05-07 16:43 | 28.14533 | 58.17853 | 32845 ft | 519 kts | 56° |
| 2026-05-07 16:43 | 28.18163 | 58.24915 | 32842 ft | 519 kts | 56° |
| 2026-05-07 16:44 | 28.21787 | 58.31974 | 32860 ft | 518 kts | 56° |
| 2026-05-07 16:44 | 28.25413 | 58.39050 | 32875 ft | 519 kts | 56° |
| 2026-05-07 16:45 | 28.29021 | 58.46126 | 32893 ft | 518 kts | 57° |
| 2026-05-07 16:45 | 28.32566 | 58.53250 | 32886 ft | 519 kts | 57° |
| 2026-05-07 16:46 | 28.36129 | 58.60367 | 32892 ft | 518 kts | 56° |
| 2026-05-07 16:46 | 28.39711 | 58.67468 | 32892 ft | 519 kts | 56° |
| 2026-05-07 16:47 | 28.43294 | 58.74581 | 32887 ft | 519 kts | 56° |
| 2026-05-07 16:47 | 28.46882 | 58.81711 | 32858 ft | 519 kts | 56° |
| 2026-05-07 16:48 | 28.50470 | 58.88851 | 32856 ft | 519 kts | 56° |
| 2026-05-07 16:48 | 28.54070 | 58.96029 | 32850 ft | 519 kts | 56° |
| 2026-05-07 16:49 | 28.57648 | 59.03174 | 32864 ft | 520 kts | 56° |
| 2026-05-07 16:49 | 28.61221 | 59.10321 | 32829 ft | 519 kts | 56° |
| 2026-05-07 16:50 | 28.64785 | 59.17465 | 32821 ft | 519 kts | 56° |
| 2026-05-07 16:50 | 28.68344 | 59.24608 | 32825 ft | 519 kts | 56° |
| 2026-05-07 16:51 | 28.71900 | 59.31758 | 32818 ft | 519 kts | 56° |
| 2026-05-07 16:51 | 28.75457 | 59.38922 | 32821 ft | 519 kts | 56° |
| 2026-05-07 16:52 | 28.79029 | 59.46128 | 32821 ft | 519 kts | 56° |
| 2026-05-07 16:52 | 28.82574 | 59.53293 | 32826 ft | 519 kts | 56° |
| 2026-05-07 16:53 | 28.86117 | 59.60466 | 32841 ft | 519 kts | 56° |
| 2026-05-07 16:53 | 28.89652 | 59.67635 | 32833 ft | 520 kts | 56° |
| 2026-05-07 16:54 | 28.93201 | 59.74846 | 32847 ft | 520 kts | 56° |
| 2026-05-07 16:54 | 28.94968 | 59.78442 | 32988 ft | 517 kts | 56° |
| 2026-05-07 16:54 | 28.96724 | 59.82030 | 33930 ft | 504 kts | 56° |
| 2026-05-07 16:54 | 28.98415 | 59.85488 | 34786 ft | 499 kts | 56° |
| 2026-05-07 16:55 | 29.00103 | 59.88951 | 35368 ft | 500 kts | 56° |
| 2026-05-07 16:55 | 29.01761 | 59.92404 | 35963 ft | 500 kts | 56° |
| 2026-05-07 16:55 | 29.03414 | 59.95892 | 36574 ft | 500 kts | 56° |
| 2026-05-07 16:55 | 29.05092 | 59.99414 | 36806 ft | 510 kts | 56° |
| 2026-05-07 16:56 | 29.06238 | 60.01794 | 36895 ft | 517 kts | 56° |
| 2026-05-07 16:56 | 29.07985 | 60.05401 | 36850 ft | 532 kts | 56° |
| 2026-05-07 16:56 | 29.11656 | 60.12981 | 36928 ft | 554 kts | 57° |
| 2026-05-07 16:57 | 29.15414 | 60.20792 | 36987 ft | 557 kts | 57° |
| 2026-05-07 16:57 | 29.19153 | 60.28562 | 37001 ft | 558 kts | 57° |
| 2026-05-07 16:58 | 29.22905 | 60.36358 | 37024 ft | 559 kts | 57° |
| 2026-05-07 16:58 | 29.26645 | 60.44150 | 37040 ft | 559 kts | 57° |
| 2026-05-07 16:59 | 29.30373 | 60.51947 | 37044 ft | 557 kts | 57° |
| 2026-05-07 16:59 | 29.34137 | 60.59784 | 37046 ft | 557 kts | 57° |
| 2026-05-07 17:00 | 29.37870 | 60.67552 | 37047 ft | 557 kts | 57° |
| 2026-05-07 17:00 | 29.41637 | 60.75389 | 37049 ft | 557 kts | 57° |
| 2026-05-07 17:01 | 29.45341 | 60.83105 | 37080 ft | 557 kts | 57° |
| 2026-05-07 17:01 | 29.48908 | 60.91103 | 37043 ft | 563 kts | 69° |
| 2026-05-07 17:02 | 29.49781 | 60.95551 | 37006 ft | 567 kts | 85° |
| 2026-05-07 17:02 | 29.49635 | 61.00057 | 36981 ft | 566 kts | 102° |
| 2026-05-07 17:02 | 29.48533 | 61.04359 | 37023 ft | 559 kts | 115° |
| 2026-05-07 17:02 | 29.47033 | 61.08489 | 36988 ft | 563 kts | 114° |
| 2026-05-07 17:03 | 29.44804 | 61.17176 | 36967 ft | 567 kts | 102° |
| 2026-05-07 17:03 | 29.43365 | 61.26091 | 36945 ft | 568 kts | 100° |
| 2026-05-07 17:04 | 29.42440 | 61.35056 | 36912 ft | 569 kts | 96° |
| 2026-05-07 17:04 | 29.41615 | 61.44083 | 36930 ft | 569 kts | 96° |
| 2026-05-07 17:05 | 29.40869 | 61.52458 | 36896 ft | 568 kts | 96° |
| 2026-05-07 17:05 | 29.40108 | 61.61476 | 36872 ft | 569 kts | 96° |
| 2026-05-07 17:06 | 29.39346 | 61.70485 | 36858 ft | 568 kts | 95° |
| 2026-05-07 17:06 | 29.38575 | 61.79565 | 36864 ft | 568 kts | 95° |
| 2026-05-07 17:07 | 29.37806 | 61.88571 | 36868 ft | 568 kts | 95° |
| 2026-05-07 17:07 | 29.37032 | 61.97561 | 36855 ft | 568 kts | 96° |
| 2026-05-07 17:08 | 29.36241 | 62.06670 | 36853 ft | 568 kts | 96° |
| 2026-05-07 17:08 | 29.35456 | 62.15654 | 36854 ft | 568 kts | 96° |
| 2026-05-07 17:09 | 29.34661 | 62.24671 | 36853 ft | 569 kts | 96° |
| 2026-05-07 17:09 | 29.33860 | 62.33699 | 36850 ft | 570 kts | 96° |
| 2026-05-07 17:10 | 29.33052 | 62.42726 | 36854 ft | 569 kts | 96° |
| 2026-05-07 17:10 | 29.32238 | 62.51751 | 36835 ft | 569 kts | 96° |
| 2026-05-07 17:11 | 29.31414 | 62.60818 | 36850 ft | 568 kts | 96° |
| 2026-05-07 17:11 | 29.30592 | 62.69804 | 36851 ft | 568 kts | 96° |
| 2026-05-07 17:12 | 29.29763 | 62.78801 | 36846 ft | 568 kts | 96° |
| 2026-05-07 17:12 | 29.28921 | 62.87852 | 36847 ft | 568 kts | 96° |
| 2026-05-07 17:13 | 29.28080 | 62.96848 | 36841 ft | 567 kts | 96° |
| 2026-05-07 17:13 | 29.27371 | 63.04375 | 36835 ft | 567 kts | 96° |
| 2026-05-07 17:14 | 29.26513 | 63.13417 | 36848 ft | 568 kts | 96° |
| 2026-05-07 17:14 | 29.25654 | 63.22413 | 36838 ft | 568 kts | 96° |
| 2026-05-07 17:15 | 29.24789 | 63.31398 | 36853 ft | 568 kts | 96° |
| 2026-05-07 17:15 | 29.23915 | 63.40428 | 36850 ft | 567 kts | 96° |
| 2026-05-07 17:16 | 29.23037 | 63.49400 | 36861 ft | 567 kts | 96° |
| 2026-05-07 17:16 | 29.22150 | 63.58433 | 36868 ft | 568 kts | 96° |
| 2026-05-07 17:17 | 29.21262 | 63.67413 | 36859 ft | 568 kts | 96° |
| 2026-05-07 17:17 | 29.20366 | 63.76400 | 36869 ft | 568 kts | 96° |
| 2026-05-07 17:18 | 29.19459 | 63.85441 | 36862 ft | 568 kts | 96° |
| 2026-05-07 17:18 | 29.18554 | 63.94421 | 36871 ft | 568 kts | 96° |
| 2026-05-07 17:19 | 29.17640 | 64.03406 | 36852 ft | 568 kts | 96° |
| 2026-05-07 17:19 | 29.16721 | 64.12367 | 36857 ft | 569 kts | 96° |
| 2026-05-07 17:20 | 29.15793 | 64.21384 | 36852 ft | 568 kts | 96° |
| 2026-05-07 17:20 | 29.14856 | 64.30412 | 36853 ft | 568 kts | 96° |
| 2026-05-07 17:21 | 29.13926 | 64.39378 | 36832 ft | 568 kts | 95° |
| 2026-05-07 17:21 | 29.13409 | 64.48449 | 36821 ft | 567 kts | 91° |
| 2026-05-07 17:22 | 29.12998 | 64.57453 | 36822 ft | 567 kts | 91° |
| 2026-05-07 17:22 | 29.12628 | 64.66522 | 36820 ft | 567 kts | 90° |
| 2026-05-07 17:23 | 29.12324 | 64.75539 | 36819 ft | 567 kts | 90° |
| 2026-05-07 17:23 | 29.12023 | 64.84551 | 36811 ft | 567 kts | 90° |
| 2026-05-07 17:24 | 29.11718 | 64.93624 | 36818 ft | 567 kts | 90° |
| 2026-05-07 17:24 | 29.11416 | 65.02520 | 36823 ft | 568 kts | 90° |
| 2026-05-07 17:25 | 29.11105 | 65.11521 | 36818 ft | 568 kts | 90° |
| 2026-05-07 17:25 | 29.10787 | 65.20563 | 36803 ft | 567 kts | 90° |
| 2026-05-07 17:26 | 29.10414 | 65.29535 | 36816 ft | 565 kts | 92° |
| 2026-05-07 17:26 | 29.09908 | 65.38518 | 36828 ft | 567 kts | 92° |
| 2026-05-07 17:27 | 29.09433 | 65.47585 | 36819 ft | 566 kts | 91° |
| 2026-05-07 17:27 | 29.08984 | 65.56577 | 36818 ft | 566 kts | 91° |
| 2026-05-07 17:28 | 29.08526 | 65.65570 | 36838 ft | 567 kts | 91° |
| 2026-05-07 17:28 | 29.08065 | 65.74572 | 36840 ft | 568 kts | 91° |
| 2026-05-07 17:29 | 29.07595 | 65.83627 | 36842 ft | 567 kts | 91° |
| 2026-05-07 17:29 | 29.07120 | 65.92640 | 36869 ft | 567 kts | 91° |
| 2026-05-07 17:30 | 29.06640 | 66.01653 | 36901 ft | 568 kts | 91° |
| 2026-05-07 17:30 | 29.06155 | 66.10659 | 36900 ft | 569 kts | 91° |
| 2026-05-07 17:31 | 29.05660 | 66.19697 | 36923 ft | 569 kts | 91° |
| 2026-05-07 17:31 | 29.05161 | 66.28720 | 36952 ft | 569 kts | 91° |
| 2026-05-07 17:32 | 29.04655 | 66.37748 | 36943 ft | 569 kts | 91° |
| 2026-05-07 17:32 | 29.04230 | 66.45249 | 36955 ft | 569 kts | 91° |
| 2026-05-07 17:33 | 29.04167 | 66.51277 | 36934 ft | 563 kts | 78° |
| 2026-05-07 17:33 | 29.05067 | 66.55554 | 36979 ft | 549 kts | 62° |
| 2026-05-07 17:33 | 29.06830 | 66.59358 | 37029 ft | 535 kts | 49° |
| 2026-05-07 17:33 | 29.08973 | 66.62840 | 36992 ft | 535 kts | 47° |
| 2026-05-07 17:34 | 29.13472 | 66.69609 | 36969 ft | 534 kts | 44° |
| 2026-05-07 17:34 | 29.18286 | 66.76039 | 36964 ft | 530 kts | 40° |
| 2026-05-07 17:35 | 29.23310 | 66.82294 | 36955 ft | 530 kts | 40° |
| 2026-05-07 17:35 | 29.28334 | 66.88463 | 36951 ft | 530 kts | 39° |
| 2026-05-07 17:36 | 29.32511 | 66.93565 | 36938 ft | 527 kts | 39° |
| 2026-05-07 17:36 | 29.37539 | 66.99690 | 36913 ft | 526 kts | 39° |
| 2026-05-07 17:37 | 29.42557 | 67.05806 | 36888 ft | 527 kts | 39° |
| 2026-05-07 17:37 | 29.47573 | 67.11926 | 36904 ft | 527 kts | 39° |
| 2026-05-07 17:38 | 29.52635 | 67.18108 | 36840 ft | 528 kts | 39° |
| 2026-05-07 17:38 | 29.57663 | 67.24262 | 36846 ft | 527 kts | 40° |
| 2026-05-07 17:39 | 29.62653 | 67.30403 | 36806 ft | 526 kts | 39° |
| 2026-05-07 17:39 | 29.67665 | 67.36522 | 36806 ft | 525 kts | 39° |
| 2026-05-07 17:40 | 29.72661 | 67.42648 | 36768 ft | 525 kts | 39° |
| 2026-05-07 17:40 | 29.77689 | 67.48840 | 36783 ft | 526 kts | 39° |
| 2026-05-07 17:41 | 29.82658 | 67.55020 | 36790 ft | 525 kts | 40° |
| 2026-05-07 17:41 | 29.87666 | 67.61209 | 36775 ft | 525 kts | 39° |
| 2026-05-07 17:42 | 29.92652 | 67.67334 | 36787 ft | 524 kts | 39° |
| 2026-05-07 17:42 | 29.97634 | 67.73478 | 36787 ft | 524 kts | 39° |
| 2026-05-07 17:43 | 30.02637 | 67.79665 | 36830 ft | 524 kts | 39° |
| 2026-05-07 17:43 | 30.07611 | 67.85812 | 36837 ft | 524 kts | 39° |
| 2026-05-07 17:44 | 30.12593 | 67.91952 | 36839 ft | 524 kts | 39° |
| 2026-05-07 17:44 | 30.17580 | 67.98095 | 36897 ft | 524 kts | 39° |
| 2026-05-07 17:45 | 30.22564 | 68.04233 | 36868 ft | 523 kts | 39° |
| 2026-05-07 17:45 | 30.27552 | 68.10378 | 36893 ft | 523 kts | 39° |
| 2026-05-07 17:46 | 30.32559 | 68.16552 | 36915 ft | 524 kts | 39° |
| 2026-05-07 17:46 | 30.37556 | 68.22744 | 36888 ft | 521 kts | 40° |
| 2026-05-07 17:47 | 30.42532 | 68.28901 | 36917 ft | 521 kts | 39° |
| 2026-05-07 17:47 | 30.47464 | 68.34999 | 36905 ft | 521 kts | 40° |
| 2026-05-07 17:48 | 30.52413 | 68.41138 | 36905 ft | 521 kts | 40° |
| 2026-05-07 17:48 | 30.57364 | 68.47285 | 36896 ft | 521 kts | 40° |
| 2026-05-07 17:49 | 30.62308 | 68.53434 | 36905 ft | 520 kts | 40° |
| 2026-05-07 17:49 | 30.67235 | 68.59578 | 36901 ft | 519 kts | 40° |
| 2026-05-07 17:50 | 30.72190 | 68.65756 | 36903 ft | 519 kts | 40° |
| 2026-05-07 17:50 | 30.77104 | 68.71896 | 36903 ft | 519 kts | 40° |
| 2026-05-07 17:51 | 30.82020 | 68.78052 | 36917 ft | 519 kts | 40° |
| 2026-05-07 17:51 | 30.86927 | 68.84208 | 36937 ft | 518 kts | 39° |
| 2026-05-07 17:52 | 30.91826 | 68.90353 | 36940 ft | 517 kts | 39° |
| 2026-05-07 17:52 | 30.96728 | 68.96536 | 36934 ft | 515 kts | 40° |
| 2026-05-07 17:53 | 31.01584 | 69.02694 | 36938 ft | 516 kts | 40° |
| 2026-05-07 17:53 | 31.06481 | 69.08831 | 36942 ft | 517 kts | 39° |
| 2026-05-07 17:54 | 31.11374 | 69.14979 | 36938 ft | 517 kts | 40° |
| 2026-05-07 17:54 | 31.16241 | 69.21160 | 36983 ft | 516 kts | 40° |
| 2026-05-07 17:55 | 31.21092 | 69.27326 | 36948 ft | 515 kts | 39° |
| 2026-05-07 17:55 | 31.25946 | 69.33471 | 36942 ft | 514 kts | 39° |
| 2026-05-07 17:56 | 31.30827 | 69.39678 | 36935 ft | 515 kts | 40° |
| 2026-05-07 17:56 | 31.35835 | 69.45574 | 36921 ft | 502 kts | 28° |
| 2026-05-07 17:57 | 31.38737 | 69.47750 | 36932 ft | 491 kts | 21° |
| 2026-05-07 17:57 | 31.40721 | 69.49011 | 36934 ft | 491 kts | 20° |
| 2026-05-07 17:57 | 31.47552 | 69.53985 | 36977 ft | 499 kts | 27° |
| 2026-05-07 17:58 | 31.53285 | 69.58523 | 36944 ft | 495 kts | 24° |
| 2026-05-07 17:58 | 31.59244 | 69.62634 | 36925 ft | 492 kts | 22° |
| 2026-05-07 17:59 | 31.65142 | 69.66741 | 36936 ft | 494 kts | 24° |
| 2026-05-07 17:59 | 31.71001 | 69.70979 | 36912 ft | 494 kts | 24° |
| 2026-05-07 18:00 | 31.76881 | 69.75154 | 36949 ft | 493 kts | 23° |
| 2026-05-07 18:00 | 31.82760 | 69.79310 | 36922 ft | 494 kts | 23° |
| 2026-05-07 18:01 | 31.87684 | 69.82830 | 36899 ft | 494 kts | 24° |
| 2026-05-07 18:01 | 31.93550 | 69.87026 | 36908 ft | 493 kts | 24° |
| 2026-05-07 18:02 | 32.02341 | 69.93298 | 36874 ft | 492 kts | 24° |
| 2026-05-07 18:03 | 32.08202 | 69.97491 | 36906 ft | 493 kts | 24° |
| 2026-05-07 18:03 | 32.14059 | 70.01698 | 36891 ft | 493 kts | 24° |
| 2026-05-07 18:04 | 32.19923 | 70.05906 | 36885 ft | 493 kts | 24° |
| 2026-05-07 18:04 | 32.25772 | 70.10121 | 36855 ft | 493 kts | 24° |
| 2026-05-07 18:05 | 32.31637 | 70.14358 | 36867 ft | 493 kts | 24° |
| 2026-05-07 18:05 | 32.37562 | 70.18536 | 36869 ft | 491 kts | 22° |
| 2026-05-07 18:06 | 32.43499 | 70.22551 | 36867 ft | 493 kts | 24° |
| 2026-05-07 18:06 | 32.49339 | 70.26813 | 36860 ft | 493 kts | 25° |
| 2026-05-07 18:07 | 32.55218 | 70.30970 | 36871 ft | 491 kts | 23° |
| 2026-05-07 18:07 | 32.61169 | 70.35056 | 36842 ft | 492 kts | 23° |
| 2026-05-07 18:08 | 32.67026 | 70.39300 | 36865 ft | 494 kts | 26° |
| 2026-05-07 18:08 | 32.72773 | 70.43814 | 36853 ft | 495 kts | 27° |
| 2026-05-07 18:09 | 32.78559 | 70.48245 | 36843 ft | 494 kts | 26° |
| 2026-05-07 18:09 | 32.84399 | 70.52644 | 36845 ft | 495 kts | 26° |
| 2026-05-07 18:10 | 32.90191 | 70.57088 | 36848 ft | 495 kts | 26° |
| 2026-05-07 18:10 | 32.95988 | 70.61497 | 36842 ft | 494 kts | 26° |
| 2026-05-07 18:11 | 33.01828 | 70.65774 | 36848 ft | 493 kts | 25° |
| 2026-05-07 18:11 | 33.07669 | 70.70083 | 36848 ft | 494 kts | 26° |
| 2026-05-07 18:12 | 33.13499 | 70.74427 | 36865 ft | 494 kts | 26° |
| 2026-05-07 18:12 | 33.19343 | 70.78752 | 36865 ft | 494 kts | 25° |
| 2026-05-07 18:13 | 33.25178 | 70.83075 | 36893 ft | 494 kts | 26° |
| 2026-05-07 18:13 | 33.31016 | 70.87430 | 36887 ft | 494 kts | 26° |
| 2026-05-07 18:14 | 33.36849 | 70.91786 | 36908 ft | 494 kts | 26° |
| 2026-05-07 18:14 | 33.42717 | 70.96158 | 36893 ft | 494 kts | 26° |
| 2026-05-07 18:15 | 33.48505 | 71.00613 | 36917 ft | 497 kts | 31° |
| 2026-05-07 18:15 | 33.53792 | 71.06057 | 36922 ft | 504 kts | 38° |
| 2026-05-07 18:16 | 33.59033 | 71.11603 | 36922 ft | 501 kts | 34° |
| 2026-05-07 18:16 | 33.64433 | 71.16894 | 36897 ft | 501 kts | 34° |
| 2026-05-07 18:17 | 33.69754 | 71.22390 | 36902 ft | 502 kts | 36° |
| 2026-05-07 18:17 | 33.75019 | 71.27925 | 36907 ft | 503 kts | 36° |
| 2026-05-07 18:18 | 33.80221 | 71.33269 | 36854 ft | 501 kts | 35° |
| 2026-05-07 18:18 | 33.85508 | 71.38753 | 36864 ft | 501 kts | 36° |
| 2026-05-07 18:19 | 33.90771 | 71.44259 | 36858 ft | 501 kts | 36° |
| 2026-05-07 18:19 | 33.96038 | 71.49761 | 36856 ft | 502 kts | 37° |
| 2026-05-07 18:20 | 34.00865 | 71.55894 | 36863 ft | 508 kts | 46° |
| 2026-05-07 18:20 | 34.05345 | 71.62511 | 36857 ft | 507 kts | 44° |
| 2026-05-07 18:21 | 34.10083 | 71.68868 | 36855 ft | 506 kts | 43° |
| 2026-05-07 18:21 | 34.14738 | 71.75238 | 36858 ft | 506 kts | 45° |
| 2026-05-07 18:22 | 34.19277 | 71.81718 | 36846 ft | 506 kts | 45° |
| 2026-05-07 18:22 | 34.23868 | 71.88151 | 36843 ft | 505 kts | 45° |
| 2026-05-07 18:23 | 34.28457 | 71.94564 | 36854 ft | 503 kts | 45° |
| 2026-05-07 18:23 | 34.33005 | 72.01003 | 36863 ft | 503 kts | 45° |
| 2026-05-07 18:24 | 34.37559 | 72.07436 | 36866 ft | 503 kts | 45° |
| 2026-05-07 18:24 | 34.42119 | 72.13869 | 36879 ft | 503 kts | 45° |
| 2026-05-07 18:25 | 34.46639 | 72.20282 | 36902 ft | 500 kts | 45° |
| 2026-05-07 18:25 | 34.51167 | 72.26702 | 36935 ft | 499 kts | 45° |
| 2026-05-07 18:26 | 34.55696 | 72.33146 | 36927 ft | 499 kts | 46° |
| 2026-05-07 18:26 | 34.60162 | 72.39516 | 36950 ft | 498 kts | 45° |
| 2026-05-07 18:27 | 34.64687 | 72.45969 | 36948 ft | 499 kts | 46° |
| 2026-05-07 18:27 | 34.69181 | 72.52391 | 36971 ft | 499 kts | 46° |
| 2026-05-07 18:28 | 34.73662 | 72.58828 | 37014 ft | 499 kts | 46° |
| 2026-05-07 18:28 | 34.77371 | 72.64252 | 36988 ft | 498 kts | 47° |
| 2026-05-07 18:29 | 34.81790 | 72.70729 | 37022 ft | 497 kts | 45° |
| 2026-05-07 18:29 | 34.86349 | 72.77046 | 37017 ft | 497 kts | 45° |
| 2026-05-07 18:30 | 34.90822 | 72.83473 | 37036 ft | 498 kts | 46° |
| 2026-05-07 18:30 | 34.95241 | 72.89961 | 37064 ft | 498 kts | 47° |
| 2026-05-07 18:31 | 34.99638 | 72.96472 | 37099 ft | 496 kts | 46° |
| 2026-05-07 18:31 | 35.04032 | 73.02934 | 37090 ft | 495 kts | 46° |
| 2026-05-07 18:32 | 35.08444 | 73.09379 | 37114 ft | 494 kts | 46° |
| 2026-05-07 18:32 | 35.12844 | 73.15836 | 37109 ft | 494 kts | 46° |
| 2026-05-07 18:33 | 35.17310 | 73.22284 | 37108 ft | 495 kts | 46° |
| 2026-05-07 18:33 | 35.21584 | 73.28660 | 37130 ft | 495 kts | 47° |
| 2026-05-07 18:34 | 35.26009 | 73.35081 | 37133 ft | 493 kts | 45° |
| 2026-05-07 18:34 | 35.30459 | 73.41457 | 37132 ft | 495 kts | 46° |
| 2026-05-07 18:35 | 35.34834 | 73.47952 | 37128 ft | 493 kts | 47° |
| 2026-05-07 18:35 | 35.39213 | 73.54404 | 37141 ft | 493 kts | 47° |
| 2026-05-07 18:36 | 35.43592 | 73.60885 | 37124 ft | 492 kts | 46° |
| 2026-05-07 18:36 | 35.47980 | 73.67327 | 37130 ft | 492 kts | 46° |
| 2026-05-07 18:37 | 35.52367 | 73.73845 | 37113 ft | 491 kts | 47° |
| 2026-05-07 18:37 | 35.56700 | 73.80334 | 37117 ft | 491 kts | 47° |
| 2026-05-07 18:38 | 35.61069 | 73.86808 | 37116 ft | 491 kts | 47° |
| 2026-05-07 18:38 | 35.65399 | 73.93284 | 37119 ft | 491 kts | 47° |
| 2026-05-07 18:39 | 35.69754 | 73.99759 | 37140 ft | 491 kts | 47° |
| 2026-05-07 18:39 | 35.74096 | 74.06232 | 37155 ft | 488 kts | 47° |
| 2026-05-07 18:40 | 35.78401 | 74.12728 | 37173 ft | 489 kts | 47° |
| 2026-05-07 18:40 | 35.82680 | 74.19222 | 37161 ft | 489 kts | 47° |
| 2026-05-07 18:41 | 35.87026 | 74.25676 | 37164 ft | 489 kts | 47° |
| 2026-05-07 18:41 | 35.91366 | 74.32149 | 37174 ft | 488 kts | 44° |
| 2026-05-07 18:42 | 35.96394 | 74.37625 | 37220 ft | 482 kts | 34° |
| 2026-05-07 18:42 | 36.01580 | 74.42859 | 37229 ft | 480 kts | 38° |
| 2026-05-07 18:43 | 36.06587 | 74.48455 | 37206 ft | 482 kts | 38° |
| 2026-05-07 18:43 | 36.11697 | 74.53807 | 37237 ft | 482 kts | 36° |
| 2026-05-07 18:44 | 36.16858 | 74.59109 | 37224 ft | 482 kts | 37° |
| 2026-05-07 18:44 | 36.21961 | 74.64495 | 37300 ft | 482 kts | 37° |
| 2026-05-07 18:45 | 36.27102 | 74.69815 | 37317 ft | 482 kts | 37° |
| 2026-05-07 18:45 | 36.32233 | 74.75169 | 37319 ft | 483 kts | 37° |
| 2026-05-07 18:46 | 36.37357 | 74.80573 | 37361 ft | 483 kts | 37° |
| 2026-05-07 18:46 | 36.42458 | 74.85928 | 37390 ft | 482 kts | 37° |
| 2026-05-07 18:47 | 36.47592 | 74.91280 | 37313 ft | 481 kts | 37° |
| 2026-05-07 18:47 | 36.52738 | 74.96704 | 37349 ft | 481 kts | 37° |
| 2026-05-07 18:48 | 36.57843 | 75.02088 | 37358 ft | 481 kts | 38° |
| 2026-05-07 18:48 | 36.62949 | 75.07478 | 37405 ft | 481 kts | 37° |
| 2026-05-07 18:48 | 36.65517 | 75.10138 | 37520 ft | 482 kts | 36° |
| 2026-05-07 18:49 | 36.68139 | 75.12754 | 37306 ft | 481 kts | 36° |
| 2026-05-07 18:49 | 36.73207 | 75.18176 | 37287 ft | 478 kts | 39° |
| 2026-05-07 18:50 | 36.78190 | 75.23697 | 37392 ft | 480 kts | 38° |
| 2026-05-07 18:50 | 36.83290 | 75.29067 | 37410 ft | 479 kts | 37° |
| 2026-05-07 18:51 | 36.88388 | 75.34413 | 37414 ft | 479 kts | 37° |
| 2026-05-07 18:51 | 36.93447 | 75.39837 | 37425 ft | 480 kts | 39° |
| 2026-05-07 18:52 | 36.98182 | 75.45745 | 37429 ft | 482 kts | 45° |
| 2026-05-07 18:52 | 37.02762 | 75.51871 | 37422 ft | 481 kts | 43° |
| 2026-05-07 18:53 | 37.07497 | 75.57769 | 37414 ft | 482 kts | 42° |
| 2026-05-07 18:53 | 37.12264 | 75.63751 | 37407 ft | 482 kts | 43° |
| 2026-05-07 18:54 | 37.16926 | 75.69786 | 37398 ft | 482 kts | 43° |
| 2026-05-07 18:54 | 37.21639 | 75.75757 | 37404 ft | 482 kts | 43° |
| 2026-05-07 18:55 | 37.26359 | 75.81721 | 37392 ft | 482 kts | 43° |
| 2026-05-07 18:55 | 37.31032 | 75.87724 | 37385 ft | 481 kts | 43° |
| 2026-05-07 18:56 | 37.35705 | 75.93754 | 37363 ft | 481 kts | 44° |
| 2026-05-07 18:56 | 37.40354 | 75.99787 | 37368 ft | 479 kts | 43° |
| 2026-05-07 18:57 | 37.45024 | 76.05807 | 37357 ft | 481 kts | 44° |
| 2026-05-07 18:57 | 37.49676 | 76.11852 | 37347 ft | 481 kts | 43° |
| 2026-05-07 18:58 | 37.53571 | 76.16934 | 37343 ft | 481 kts | 44° |
| 2026-05-07 18:58 | 37.58229 | 76.22961 | 37255 ft | 480 kts | 44° |
| 2026-05-07 18:59 | 37.62865 | 76.29001 | 37351 ft | 478 kts | 43° |
| 2026-05-07 18:59 | 37.67566 | 76.34977 | 37294 ft | 480 kts | 43° |
| 2026-05-07 19:00 | 37.72243 | 76.41002 | 37239 ft | 480 kts | 44° |
| 2026-05-07 19:00 | 37.76855 | 76.47107 | 37247 ft | 480 kts | 44° |
| 2026-05-07 19:01 | 37.81495 | 76.53161 | 37213 ft | 479 kts | 44° |
| 2026-05-07 19:01 | 37.86134 | 76.59212 | 37206 ft | 479 kts | 44° |
| 2026-05-07 19:02 | 37.90750 | 76.65291 | 37169 ft | 479 kts | 44° |
| 2026-05-07 19:02 | 37.95402 | 76.71415 | 37170 ft | 480 kts | 44° |
| 2026-05-07 19:03 | 38.00041 | 76.77520 | 37168 ft | 480 kts | 44° |
| 2026-05-07 19:03 | 38.04660 | 76.83619 | 37137 ft | 480 kts | 44° |
| 2026-05-07 19:04 | 38.09279 | 76.89734 | 37148 ft | 479 kts | 44° |
| 2026-05-07 19:04 | 38.13878 | 76.95832 | 37122 ft | 478 kts | 44° |
| 2026-05-07 19:05 | 38.18483 | 77.01944 | 37118 ft | 478 kts | 44° |
| 2026-05-07 19:05 | 38.23104 | 77.08010 | 37121 ft | 478 kts | 42° |
| 2026-05-07 19:06 | 38.27931 | 77.13816 | 37115 ft | 477 kts | 41° |
| 2026-05-07 19:06 | 38.35160 | 77.22568 | 37113 ft | 478 kts | 41° |
| 2026-05-07 19:07 | 38.39970 | 77.28374 | 37113 ft | 476 kts | 41° |
| 2026-05-07 19:07 | 38.44803 | 77.34130 | 37107 ft | 475 kts | 41° |
| 2026-05-07 19:08 | 38.49622 | 77.39919 | 37100 ft | 475 kts | 41° |
| 2026-05-07 19:08 | 38.54451 | 77.45740 | 37099 ft | 475 kts | 41° |
| 2026-05-07 19:09 | 38.59126 | 77.51729 | 37085 ft | 478 kts | 51° |
| 2026-05-07 19:09 | 38.60777 | 77.55418 | 37054 ft | 482 kts | 67° |
| 2026-05-07 19:09 | 38.61569 | 77.59583 | 37113 ft | 488 kts | 82° |
| 2026-05-07 19:10 | 38.61920 | 77.68297 | 37092 ft | 490 kts | 79° |
| 2026-05-07 19:10 | 38.63577 | 77.76663 | 37087 ft | 485 kts | 68° |
| 2026-05-07 19:11 | 38.65628 | 77.84901 | 37075 ft | 487 kts | 72° |
| 2026-05-07 19:11 | 38.67197 | 77.93352 | 37076 ft | 488 kts | 73° |
| 2026-05-07 19:12 | 38.68931 | 78.01747 | 37060 ft | 487 kts | 70° |
| 2026-05-07 19:12 | 38.70812 | 78.10139 | 37060 ft | 487 kts | 71° |
| 2026-05-07 19:13 | 38.72561 | 78.18524 | 37058 ft | 488 kts | 72° |
| 2026-05-07 19:13 | 38.74308 | 78.26920 | 37052 ft | 488 kts | 71° |
| 2026-05-07 19:14 | 38.76093 | 78.35306 | 37057 ft | 488 kts | 71° |
| 2026-05-07 19:14 | 38.77851 | 78.43692 | 37058 ft | 488 kts | 72° |
| 2026-05-07 19:15 | 38.79597 | 78.52091 | 37054 ft | 488 kts | 72° |
| 2026-05-07 19:15 | 38.81345 | 78.60488 | 37050 ft | 488 kts | 72° |
| 2026-05-07 19:16 | 38.83089 | 78.68896 | 37063 ft | 488 kts | 72° |
| 2026-05-07 19:16 | 38.84823 | 78.77315 | 37049 ft | 488 kts | 72° |
| 2026-05-07 19:17 | 38.86551 | 78.85728 | 37046 ft | 488 kts | 72° |
| 2026-05-07 19:17 | 38.88276 | 78.94154 | 37044 ft | 488 kts | 72° |
| 2026-05-07 19:18 | 38.90004 | 79.02631 | 37048 ft | 488 kts | 72° |
| 2026-05-07 19:18 | 38.91715 | 79.11057 | 37059 ft | 487 kts | 72° |
| 2026-05-07 19:19 | 38.93414 | 79.19469 | 37053 ft | 487 kts | 72° |
| 2026-05-07 19:19 | 38.95104 | 79.27888 | 37048 ft | 487 kts | 72° |
| 2026-05-07 19:20 | 38.96796 | 79.36322 | 37051 ft | 487 kts | 72° |
| 2026-05-07 19:20 | 38.98481 | 79.44748 | 37066 ft | 485 kts | 72° |
| 2026-05-07 19:21 | 39.00149 | 79.53138 | 37056 ft | 485 kts | 73° |
| 2026-05-07 19:21 | 39.01808 | 79.61536 | 37053 ft | 484 kts | 73° |
| 2026-05-07 19:22 | 39.03462 | 79.69923 | 37048 ft | 484 kts | 73° |
| 2026-05-07 19:22 | 39.05114 | 79.78326 | 37051 ft | 484 kts | 73° |
| 2026-05-07 19:23 | 39.06769 | 79.86785 | 37056 ft | 484 kts | 73° |
| 2026-05-07 19:23 | 39.08406 | 79.95187 | 37049 ft | 484 kts | 73° |
| 2026-05-07 19:24 | 39.10034 | 80.03579 | 37049 ft | 484 kts | 73° |
| 2026-05-07 19:24 | 39.11639 | 80.11992 | 37050 ft | 484 kts | 74° |
| 2026-05-07 19:25 | 39.13086 | 80.20479 | 37058 ft | 486 kts | 75° |
| 2026-05-07 19:25 | 39.14605 | 80.28948 | 37051 ft | 485 kts | 73° |
| 2026-05-07 19:26 | 39.16250 | 80.37392 | 37053 ft | 485 kts | 73° |
| 2026-05-07 19:26 | 39.17848 | 80.45844 | 37051 ft | 486 kts | 73° |
| 2026-05-07 19:27 | 39.19426 | 80.54304 | 37071 ft | 486 kts | 74° |
| 2026-05-07 19:27 | 39.20770 | 80.61410 | 37064 ft | 486 kts | 73° |
| 2026-05-07 19:28 | 39.22356 | 80.69847 | 37055 ft | 486 kts | 74° |
| 2026-05-07 19:28 | 39.23934 | 80.78330 | 37067 ft | 486 kts | 74° |
| 2026-05-07 19:29 | 39.25511 | 80.86806 | 37054 ft | 486 kts | 74° |
| 2026-05-07 19:29 | 39.27086 | 80.95293 | 37065 ft | 486 kts | 74° |
| 2026-05-07 19:30 | 39.28659 | 81.03846 | 37058 ft | 486 kts | 75° |
| 2026-05-07 19:30 | 39.30212 | 81.12349 | 37061 ft | 486 kts | 75° |
| 2026-05-07 19:31 | 39.31766 | 81.20850 | 37063 ft | 487 kts | 75° |
| 2026-05-07 19:31 | 39.33315 | 81.29358 | 37071 ft | 487 kts | 75° |
| 2026-05-07 19:32 | 39.34855 | 81.37857 | 37060 ft | 486 kts | 75° |
| 2026-05-07 19:32 | 39.36389 | 81.46383 | 37058 ft | 486 kts | 75° |
| 2026-05-07 19:33 | 39.37917 | 81.54896 | 37064 ft | 486 kts | 75° |
| 2026-05-07 19:33 | 39.39441 | 81.63416 | 37063 ft | 487 kts | 75° |
| 2026-05-07 19:34 | 39.40960 | 81.71950 | 37071 ft | 487 kts | 75° |
| 2026-05-07 19:34 | 39.42484 | 81.80559 | 37066 ft | 487 kts | 75° |
| 2026-05-07 19:35 | 39.43987 | 81.89092 | 37072 ft | 487 kts | 75° |
| 2026-05-07 19:35 | 39.45491 | 81.97658 | 37069 ft | 487 kts | 75° |
| 2026-05-07 19:36 | 39.46985 | 82.06209 | 37067 ft | 487 kts | 75° |
| 2026-05-07 19:36 | 39.48473 | 82.14771 | 37069 ft | 487 kts | 76° |
| 2026-05-07 19:37 | 39.49954 | 82.23326 | 37069 ft | 487 kts | 76° |
| 2026-05-07 19:37 | 39.51439 | 82.31949 | 37064 ft | 487 kts | 76° |
| 2026-05-07 19:38 | 39.52900 | 82.40469 | 37077 ft | 488 kts | 76° |
| 2026-05-07 19:38 | 39.54377 | 82.49120 | 37069 ft | 489 kts | 76° |
| 2026-05-07 19:39 | 39.55774 | 82.57729 | 37065 ft | 489 kts | 77° |
| 2026-05-07 19:39 | 39.57054 | 82.66392 | 37067 ft | 489 kts | 77° |
| 2026-05-07 19:40 | 39.58472 | 82.75004 | 37071 ft | 488 kts | 76° |
| 2026-05-07 19:40 | 39.59940 | 82.83593 | 37071 ft | 488 kts | 76° |
| 2026-05-07 19:41 | 39.61352 | 82.92208 | 37067 ft | 488 kts | 76° |
| 2026-05-07 19:41 | 39.62776 | 83.00866 | 37069 ft | 488 kts | 76° |
| 2026-05-07 19:42 | 39.64203 | 83.09478 | 37073 ft | 488 kts | 76° |
| 2026-05-07 19:42 | 39.65617 | 83.18099 | 37077 ft | 488 kts | 76° |
| 2026-05-07 19:43 | 39.67019 | 83.26714 | 37072 ft | 488 kts | 76° |
| 2026-05-07 19:43 | 39.68422 | 83.35353 | 37066 ft | 488 kts | 77° |
| 2026-05-07 19:44 | 39.69814 | 83.43970 | 37067 ft | 488 kts | 77° |
| 2026-05-07 19:44 | 39.71202 | 83.52618 | 37067 ft | 489 kts | 77° |
| 2026-05-07 19:45 | 39.72587 | 83.61249 | 37076 ft | 489 kts | 77° |
| 2026-05-07 19:45 | 39.73974 | 83.69960 | 37072 ft | 489 kts | 77° |
| 2026-05-07 19:46 | 39.75344 | 83.78618 | 37074 ft | 489 kts | 77° |
| 2026-05-07 19:46 | 39.76709 | 83.87274 | 37074 ft | 489 kts | 77° |
| 2026-05-07 19:47 | 39.78070 | 83.95949 | 37079 ft | 489 kts | 77° |
| 2026-05-07 19:47 | 39.79423 | 84.04621 | 37072 ft | 490 kts | 77° |
| 2026-05-07 19:48 | 39.80770 | 84.13304 | 37074 ft | 490 kts | 77° |
| 2026-05-07 19:48 | 39.82109 | 84.21974 | 37074 ft | 490 kts | 77° |
| 2026-05-07 19:49 | 39.83453 | 84.30724 | 37088 ft | 490 kts | 77° |
| 2026-05-07 19:49 | 39.84781 | 84.39416 | 37079 ft | 490 kts | 77° |
| 2026-05-07 19:50 | 39.86102 | 84.48108 | 37075 ft | 490 kts | 77° |
| 2026-05-07 19:50 | 39.87417 | 84.56807 | 37075 ft | 490 kts | 77° |
| 2026-05-07 19:51 | 39.88726 | 84.65512 | 37075 ft | 490 kts | 77° |
| 2026-05-07 19:51 | 39.90033 | 84.74236 | 37078 ft | 490 kts | 78° |
| 2026-05-07 19:52 | 39.91329 | 84.82946 | 37072 ft | 490 kts | 78° |
| 2026-05-07 19:52 | 39.92619 | 84.91673 | 37069 ft | 490 kts | 78° |
| 2026-05-07 19:53 | 39.93901 | 85.00389 | 37069 ft | 490 kts | 78° |
| 2026-05-07 19:53 | 39.95179 | 85.09108 | 37077 ft | 490 kts | 78° |
| 2026-05-07 19:54 | 39.96451 | 85.17846 | 37070 ft | 490 kts | 78° |
| 2026-05-07 19:54 | 39.97723 | 85.26633 | 37069 ft | 490 kts | 78° |
| 2026-05-07 19:55 | 39.98695 | 85.33921 | 37069 ft | 491 kts | 80° |
| 2026-05-07 19:55 | 39.99893 | 85.42670 | 37073 ft | 490 kts | 77° |
| 2026-05-07 19:56 | 40.01327 | 85.51365 | 37069 ft | 491 kts | 77° |
| 2026-05-07 19:56 | 40.02565 | 85.60143 | 37068 ft | 491 kts | 79° |
| 2026-05-07 19:57 | 40.03760 | 85.68987 | 37060 ft | 492 kts | 78° |
| 2026-05-07 19:57 | 40.05015 | 85.77744 | 37068 ft | 492 kts | 78° |
| 2026-05-07 19:58 | 40.06243 | 85.86525 | 37069 ft | 492 kts | 79° |
| 2026-05-07 19:58 | 40.07426 | 85.95319 | 37057 ft | 492 kts | 81° |
| 2026-05-07 19:59 | 40.07626 | 85.99764 | 37047 ft | 492 kts | 94° |
| 2026-05-07 19:59 | 40.07106 | 86.04187 | 37049 ft | 493 kts | 102° |
| 2026-05-07 19:59 | 40.05538 | 86.12900 | 37055 ft | 494 kts | 98° |
| 2026-05-07 20:00 | 40.04661 | 86.21849 | 37069 ft | 494 kts | 96° |
| 2026-05-07 20:00 | 40.03624 | 86.30736 | 37068 ft | 496 kts | 100° |
| 2026-05-07 20:01 | 40.02287 | 86.39557 | 37059 ft | 496 kts | 99° |
| 2026-05-07 20:01 | 40.01100 | 86.48416 | 37066 ft | 496 kts | 98° |
| 2026-05-07 20:02 | 39.99934 | 86.57280 | 37068 ft | 496 kts | 99° |
| 2026-05-07 20:02 | 39.98683 | 86.66142 | 37054 ft | 497 kts | 99° |
| 2026-05-07 20:03 | 39.97444 | 86.75008 | 37050 ft | 498 kts | 99° |
| 2026-05-07 20:03 | 39.96215 | 86.83890 | 37049 ft | 498 kts | 99° |
| 2026-05-07 20:04 | 39.94963 | 86.92773 | 37051 ft | 498 kts | 99° |
| 2026-05-07 20:04 | 39.93706 | 87.01646 | 37053 ft | 499 kts | 99° |
| 2026-05-07 20:05 | 39.92444 | 87.10539 | 37045 ft | 499 kts | 100° |
| 2026-05-07 20:05 | 39.91164 | 87.19479 | 37044 ft | 499 kts | 100° |
| 2026-05-07 20:06 | 39.89888 | 87.28356 | 37049 ft | 499 kts | 100° |
| 2026-05-07 20:06 | 39.88603 | 87.37244 | 37050 ft | 499 kts | 100° |
| 2026-05-07 20:07 | 39.87313 | 87.46108 | 37045 ft | 499 kts | 100° |
| 2026-05-07 20:07 | 39.86012 | 87.54998 | 37044 ft | 499 kts | 100° |
| 2026-05-07 20:08 | 39.84708 | 87.63872 | 37039 ft | 499 kts | 100° |
| 2026-05-07 20:08 | 39.83397 | 87.72732 | 37035 ft | 499 kts | 100° |
| 2026-05-07 20:09 | 39.82078 | 87.81602 | 37038 ft | 499 kts | 100° |
| 2026-05-07 20:10 | 39.80082 | 87.94906 | 37032 ft | 499 kts | 101° |
| 2026-05-07 20:10 | 39.78641 | 88.03791 | 37030 ft | 500 kts | 102° |
| 2026-05-07 20:11 | 39.77169 | 88.12620 | 37041 ft | 500 kts | 101° |
| 2026-05-07 20:11 | 39.75825 | 88.21488 | 37036 ft | 500 kts | 100° |
| 2026-05-07 20:12 | 39.74478 | 88.30347 | 37035 ft | 500 kts | 101° |
| 2026-05-07 20:12 | 39.73092 | 88.39199 | 37042 ft | 500 kts | 101° |
| 2026-05-07 20:13 | 39.71718 | 88.48054 | 37051 ft | 500 kts | 101° |
| 2026-05-07 20:13 | 39.70343 | 88.56913 | 37045 ft | 500 kts | 101° |
| 2026-05-07 20:14 | 39.68952 | 88.65766 | 37040 ft | 501 kts | 101° |
| 2026-05-07 20:14 | 39.67546 | 88.74685 | 37042 ft | 501 kts | 101° |
| 2026-05-07 20:15 | 39.66146 | 88.83532 | 37045 ft | 501 kts | 101° |
| 2026-05-07 20:15 | 39.64738 | 88.92378 | 37045 ft | 501 kts | 101° |
| 2026-05-07 20:16 | 39.63318 | 89.01246 | 37041 ft | 501 kts | 101° |
| 2026-05-07 20:16 | 39.61896 | 89.10085 | 37040 ft | 501 kts | 101° |
| 2026-05-07 20:17 | 39.60463 | 89.18949 | 37039 ft | 501 kts | 101° |
| 2026-05-07 20:17 | 39.59027 | 89.27789 | 37040 ft | 502 kts | 101° |
| 2026-05-07 20:18 | 39.57580 | 89.36646 | 37047 ft | 503 kts | 101° |
| 2026-05-07 20:18 | 39.56125 | 89.45503 | 37052 ft | 503 kts | 101° |
| 2026-05-07 20:19 | 39.54662 | 89.54371 | 37060 ft | 503 kts | 102° |
| 2026-05-07 20:19 | 39.53182 | 89.63297 | 37058 ft | 504 kts | 102° |
| 2026-05-07 20:20 | 39.51705 | 89.72160 | 37047 ft | 503 kts | 102° |
| 2026-05-07 20:20 | 39.50222 | 89.81019 | 37072 ft | 503 kts | 102° |
| 2026-05-07 20:21 | 39.48733 | 89.89869 | 37063 ft | 503 kts | 102° |
| 2026-05-07 20:21 | 39.47234 | 89.98731 | 37086 ft | 504 kts | 102° |
| 2026-05-07 20:22 | 39.45731 | 90.07578 | 37075 ft | 504 kts | 102° |
| 2026-05-07 20:22 | 39.44206 | 90.16500 | 37110 ft | 504 kts | 102° |
| 2026-05-07 20:23 | 39.42688 | 90.25344 | 37112 ft | 504 kts | 102° |
| 2026-05-07 20:23 | 39.41162 | 90.34195 | 37126 ft | 504 kts | 102° |
| 2026-05-07 20:24 | 39.39890 | 90.41540 | 37140 ft | 504 kts | 102° |
| 2026-05-07 20:24 | 39.38349 | 90.50392 | 37155 ft | 504 kts | 102° |
| 2026-05-07 20:25 | 39.36793 | 90.59297 | 37153 ft | 505 kts | 102° |
| 2026-05-07 20:25 | 39.35241 | 90.68131 | 37157 ft | 504 kts | 102° |
| 2026-05-07 20:26 | 39.33683 | 90.76967 | 37167 ft | 505 kts | 103° |
| 2026-05-07 20:26 | 39.32114 | 90.85821 | 37165 ft | 505 kts | 103° |
| 2026-05-07 20:27 | 39.30539 | 90.94659 | 37176 ft | 506 kts | 103° |
| 2026-05-07 20:27 | 39.28955 | 91.03506 | 37206 ft | 506 kts | 103° |
| 2026-05-07 20:28 | 39.27355 | 91.12405 | 37203 ft | 506 kts | 103° |
| 2026-05-07 20:28 | 39.25767 | 91.21201 | 37202 ft | 507 kts | 103° |
| 2026-05-07 20:29 | 39.24151 | 91.30106 | 37209 ft | 507 kts | 103° |
| 2026-05-07 20:29 | 39.22533 | 91.38978 | 37213 ft | 508 kts | 103° |
| 2026-05-07 20:30 | 39.21011 | 91.47864 | 37210 ft | 508 kts | 101° |
| 2026-05-07 20:30 | 39.19557 | 91.56766 | 37238 ft | 509 kts | 102° |
| 2026-05-07 20:31 | 39.18103 | 91.65699 | 37241 ft | 509 kts | 101° |
| 2026-05-07 20:31 | 39.16776 | 91.74670 | 37243 ft | 510 kts | 101° |
| 2026-05-07 20:32 | 39.15452 | 91.83645 | 37231 ft | 510 kts | 101° |
| 2026-05-07 20:32 | 39.14095 | 91.92603 | 37240 ft | 510 kts | 101° |
| 2026-05-07 20:33 | 39.12737 | 92.01657 | 37230 ft | 511 kts | 101° |
| 2026-05-07 20:33 | 39.11388 | 92.10582 | 37225 ft | 511 kts | 102° |
| 2026-05-07 20:34 | 39.10012 | 92.19627 | 37218 ft | 512 kts | 102° |
| 2026-05-07 20:34 | 39.09492 | 92.28724 | 37232 ft | 512 kts | 79° |
| 2026-05-07 20:34 | 39.10471 | 92.33117 | 37254 ft | 511 kts | 65° |
| 2026-05-07 20:35 | 39.12114 | 92.37189 | 37247 ft | 513 kts | 58° |
| 2026-05-07 20:35 | 39.15671 | 92.45169 | 37221 ft | 515 kts | 62° |
| 2026-05-07 20:36 | 39.18857 | 92.53436 | 37206 ft | 515 kts | 62° |
| 2026-05-07 20:36 | 39.22290 | 92.61523 | 37213 ft | 515 kts | 59° |
| 2026-05-07 20:37 | 39.25893 | 92.69520 | 37214 ft | 510 kts | 60° |
| 2026-05-07 20:37 | 39.29330 | 92.77501 | 37213 ft | 504 kts | 60° |
| 2026-05-07 20:38 | 39.32740 | 92.85397 | 37222 ft | 502 kts | 60° |
| 2026-05-07 20:38 | 39.36170 | 92.93235 | 37210 ft | 500 kts | 60° |
| 2026-05-07 20:39 | 39.39591 | 93.01122 | 37212 ft | 500 kts | 60° |
| 2026-05-07 20:39 | 39.42940 | 93.08871 | 37224 ft | 501 kts | 60° |
| 2026-05-07 20:40 | 39.46304 | 93.16649 | 37193 ft | 503 kts | 60° |
| 2026-05-07 20:40 | 39.49718 | 93.24578 | 37203 ft | 504 kts | 60° |
| 2026-05-07 20:41 | 39.52952 | 93.32104 | 37206 ft | 504 kts | 60° |
| 2026-05-07 20:41 | 39.56349 | 93.40032 | 37189 ft | 501 kts | 60° |
| 2026-05-07 20:42 | 39.59637 | 93.47713 | 37178 ft | 500 kts | 60° |
| 2026-05-07 20:42 | 39.63001 | 93.55593 | 37143 ft | 500 kts | 60° |
| 2026-05-07 20:43 | 39.66379 | 93.63533 | 37139 ft | 500 kts | 60° |
| 2026-05-07 20:43 | 39.69738 | 93.71444 | 37144 ft | 500 kts | 60° |
| 2026-05-07 20:44 | 39.73085 | 93.79345 | 37106 ft | 500 kts | 60° |
| 2026-05-07 20:44 | 39.76434 | 93.87275 | 37116 ft | 501 kts | 60° |
| 2026-05-07 20:45 | 39.79776 | 93.95205 | 37091 ft | 500 kts | 60° |
| 2026-05-07 20:45 | 39.83117 | 94.03154 | 37091 ft | 500 kts | 60° |
| 2026-05-07 20:46 | 39.86449 | 94.11103 | 37094 ft | 500 kts | 60° |
| 2026-05-07 20:46 | 39.89640 | 94.18734 | 37081 ft | 500 kts | 60° |
| 2026-05-07 20:47 | 39.93046 | 94.26892 | 37081 ft | 502 kts | 60° |
| 2026-05-07 20:47 | 39.96374 | 94.34895 | 37084 ft | 502 kts | 60° |
| 2026-05-07 20:48 | 39.99614 | 94.42709 | 37085 ft | 500 kts | 60° |
| 2026-05-07 20:48 | 40.02921 | 94.50694 | 37083 ft | 500 kts | 60° |
| 2026-05-07 20:49 | 40.06223 | 94.58684 | 37078 ft | 500 kts | 60° |
| 2026-05-07 20:49 | 40.09541 | 94.66715 | 37077 ft | 504 kts | 61° |
| 2026-05-07 20:50 | 40.12756 | 94.74855 | 37063 ft | 504 kts | 60° |
| 2026-05-07 20:50 | 40.14691 | 94.78717 | 37051 ft | 501 kts | 47° |
| 2026-05-07 20:50 | 40.17237 | 94.81742 | 37053 ft | 493 kts | 30° |
| 2026-05-07 20:50 | 40.19210 | 94.83170 | 37052 ft | 486 kts | 19° |
| 2026-05-07 20:51 | 40.22423 | 94.84420 | 37071 ft | 480 kts | 7° |
| 2026-05-07 20:51 | 40.29091 | 94.85624 | 37052 ft | 482 kts | 4° |
| 2026-05-07 20:52 | 40.35735 | 94.86898 | 37055 ft | 484 kts | 8° |
| 2026-05-07 20:52 | 40.42297 | 94.88873 | 37065 ft | 482 kts | 10° |
| 2026-05-07 20:53 | 40.48854 | 94.90482 | 37064 ft | 479 kts | 6° |
| 2026-05-07 20:53 | 40.55444 | 94.91746 | 37060 ft | 478 kts | 6° |
| 2026-05-07 20:54 | 40.62053 | 94.93188 | 37071 ft | 477 kts | 7° |
| 2026-05-07 20:54 | 40.68596 | 94.94617 | 37066 ft | 476 kts | 7° |
| 2026-05-07 20:55 | 40.75134 | 94.95969 | 37067 ft | 476 kts | 6° |
| 2026-05-07 20:55 | 40.81614 | 94.97317 | 37073 ft | 477 kts | 7° |
| 2026-05-07 20:56 | 40.88166 | 94.98753 | 37071 ft | 476 kts | 7° |
| 2026-05-07 20:56 | 40.94692 | 95.00147 | 37067 ft | 475 kts | 7° |
| 2026-05-07 20:57 | 41.01224 | 95.01528 | 37071 ft | 475 kts | 7° |
| 2026-05-07 20:57 | 41.07754 | 95.02928 | 37069 ft | 475 kts | 7° |
| 2026-05-07 20:58 | 41.14317 | 95.04335 | 37068 ft | 475 kts | 7° |
| 2026-05-07 20:58 | 41.20851 | 95.05733 | 37064 ft | 475 kts | 7° |
| 2026-05-07 20:59 | 41.27374 | 95.07135 | 37082 ft | 474 kts | 7° |
| 2026-05-07 20:59 | 41.33881 | 95.08537 | 37065 ft | 473 kts | 7° |
| 2026-05-07 21:00 | 41.40383 | 95.09938 | 37079 ft | 473 kts | 7° |
| 2026-05-07 21:00 | 41.46882 | 95.11342 | 37079 ft | 473 kts | 7° |
| 2026-05-07 21:01 | 41.53418 | 95.12757 | 37070 ft | 473 kts | 7° |
| 2026-05-07 21:01 | 41.59877 | 95.14156 | 37082 ft | 473 kts | 7° |
| 2026-05-07 21:02 | 41.66413 | 95.15577 | 37078 ft | 473 kts | 7° |
| 2026-05-07 21:02 | 41.72891 | 95.16989 | 37070 ft | 471 kts | 7° |
| 2026-05-07 21:03 | 41.79221 | 95.19245 | 37049 ft | 475 kts | 27° |
| 2026-05-07 21:03 | 41.81900 | 95.21831 | 37064 ft | 478 kts | 44° |
| 2026-05-07 21:03 | 41.83896 | 95.25302 | 37064 ft | 482 kts | 60° |
| 2026-05-07 21:03 | 41.85057 | 95.29213 | 37063 ft | 486 kts | 76° |
| 2026-05-07 21:04 | 41.85550 | 95.33451 | 37072 ft | 488 kts | 85° |
| 2026-05-07 21:04 | 41.85880 | 95.42604 | 37063 ft | 495 kts | 86° |
| 2026-05-07 21:05 | 41.86342 | 95.51887 | 37074 ft | 495 kts | 85° |
| 2026-05-07 21:05 | 41.86602 | 95.61111 | 37071 ft | 496 kts | 88° |
| 2026-05-07 21:06 | 41.86675 | 95.70357 | 37074 ft | 496 kts | 88° |
| 2026-05-07 21:06 | 41.86804 | 95.79612 | 37085 ft | 497 kts | 88° |
| 2026-05-07 21:07 | 41.86918 | 95.88894 | 37077 ft | 498 kts | 89° |
| 2026-05-07 21:07 | 41.86991 | 95.98186 | 37076 ft | 498 kts | 89° |
| 2026-05-07 21:08 | 41.87068 | 96.07534 | 37076 ft | 498 kts | 89° |
| 2026-05-07 21:08 | 41.87142 | 96.16846 | 37074 ft | 499 kts | 89° |
| 2026-05-07 21:09 | 41.87255 | 96.26156 | 37070 ft | 499 kts | 87° |
| 2026-05-07 21:09 | 41.87676 | 96.35454 | 37071 ft | 499 kts | 85° |
| 2026-05-07 21:10 | 41.88086 | 96.44749 | 37058 ft | 499 kts | 86° |
| 2026-05-07 21:10 | 41.88451 | 96.54050 | 37063 ft | 500 kts | 86° |
| 2026-05-07 21:11 | 41.88864 | 96.63373 | 37056 ft | 500 kts | 86° |
| 2026-05-07 21:11 | 41.89468 | 96.77427 | 37053 ft | 500 kts | 86° |
| 2026-05-07 21:12 | 41.89854 | 96.86742 | 37052 ft | 501 kts | 86° |
| 2026-05-07 21:12 | 41.90240 | 96.96086 | 37043 ft | 501 kts | 86° |
| 2026-05-07 21:13 | 41.90616 | 97.05428 | 37041 ft | 502 kts | 86° |
| 2026-05-07 21:13 | 41.90984 | 97.14783 | 37046 ft | 502 kts | 86° |
| 2026-05-07 21:14 | 41.91346 | 97.24131 | 37050 ft | 502 kts | 86° |
| 2026-05-07 21:14 | 41.91699 | 97.33496 | 37037 ft | 502 kts | 86° |
| 2026-05-07 21:15 | 41.92047 | 97.42905 | 37037 ft | 502 kts | 86° |
| 2026-05-07 21:15 | 41.92383 | 97.52206 | 37047 ft | 502 kts | 86° |
| 2026-05-07 21:16 | 41.92716 | 97.61613 | 37038 ft | 502 kts | 87° |
| 2026-05-07 21:16 | 41.93040 | 97.71001 | 37038 ft | 503 kts | 87° |
| 2026-05-07 21:17 | 41.93356 | 97.80372 | 37048 ft | 503 kts | 87° |
| 2026-05-07 21:17 | 41.93616 | 97.88250 | 37036 ft | 503 kts | 87° |
| 2026-05-07 21:18 | 41.93918 | 97.97641 | 37040 ft | 503 kts | 87° |
| 2026-05-07 21:18 | 41.94213 | 98.07044 | 37033 ft | 505 kts | 87° |
| 2026-05-07 21:19 | 41.94502 | 98.16468 | 37026 ft | 505 kts | 87° |
| 2026-05-07 21:19 | 41.94785 | 98.25958 | 37023 ft | 505 kts | 87° |
| 2026-05-07 21:20 | 41.95056 | 98.35381 | 37027 ft | 505 kts | 87° |
| 2026-05-07 21:20 | 41.95322 | 98.44817 | 37019 ft | 507 kts | 87° |
| 2026-05-07 21:21 | 41.95582 | 98.54298 | 37013 ft | 507 kts | 87° |
| 2026-05-07 21:21 | 41.95833 | 98.63756 | 37009 ft | 507 kts | 88° |
| 2026-05-07 21:22 | 41.96075 | 98.73239 | 37002 ft | 507 kts | 88° |
| 2026-05-07 21:22 | 41.96311 | 98.82716 | 36996 ft | 509 kts | 88° |
| 2026-05-07 21:23 | 41.96539 | 98.92220 | 36996 ft | 509 kts | 88° |
| 2026-05-07 21:23 | 41.96762 | 99.01804 | 36991 ft | 509 kts | 88° |
| 2026-05-07 21:24 | 41.96972 | 99.11243 | 36990 ft | 509 kts | 88° |
| 2026-05-07 21:24 | 41.97179 | 99.20831 | 36986 ft | 510 kts | 88° |
| 2026-05-07 21:25 | 41.97376 | 99.30345 | 36979 ft | 510 kts | 88° |
| 2026-05-07 21:25 | 41.97565 | 99.39878 | 36971 ft | 510 kts | 88° |
| 2026-05-07 21:26 | 41.97746 | 99.49404 | 36973 ft | 510 kts | 88° |
| 2026-05-07 21:26 | 41.97920 | 99.58938 | 36966 ft | 511 kts | 88° |
| 2026-05-07 21:27 | 41.98086 | 99.68481 | 36964 ft | 511 kts | 88° |
| 2026-05-07 21:27 | 41.98242 | 99.77930 | 36962 ft | 511 kts | 88° |
| 2026-05-07 21:28 | 41.98387 | 99.87153 | 36982 ft | 511 kts | 88° |
| 2026-05-07 21:28 | 41.98529 | 99.96700 | 36966 ft | 511 kts | 88° |
| 2026-05-07 21:29 | 41.98665 | 100.06288 | 36957 ft | 510 kts | 88° |
| 2026-05-07 21:29 | 41.98791 | 100.15790 | 36962 ft | 510 kts | 89° |
| 2026-05-07 21:30 | 41.98909 | 100.25339 | 36966 ft | 512 kts | 88° |
| 2026-05-07 21:30 | 41.99021 | 100.34908 | 36957 ft | 512 kts | 88° |
| 2026-05-07 21:31 | 41.99127 | 100.44499 | 36958 ft | 513 kts | 89° |
| 2026-05-07 21:31 | 41.99222 | 100.54080 | 36958 ft | 513 kts | 89° |
| 2026-05-07 21:32 | 41.99307 | 100.63665 | 36960 ft | 514 kts | 89° |
| 2026-05-07 21:32 | 41.99390 | 100.73357 | 36955 ft | 515 kts | 89° |
| 2026-05-07 21:33 | 41.99464 | 100.82986 | 36954 ft | 515 kts | 89° |
| 2026-05-07 21:33 | 41.99527 | 100.92589 | 36955 ft | 515 kts | 89° |
| 2026-05-07 21:34 | 41.99424 | 101.02212 | 36944 ft | 515 kts | 98° |
| 2026-05-07 21:34 | 41.98605 | 101.06870 | 36952 ft | 512 kts | 111° |
| 2026-05-07 21:34 | 41.97228 | 101.11278 | 36957 ft | 512 kts | 116° |
| 2026-05-07 21:35 | 41.94541 | 101.20153 | 36950 ft | 514 kts | 109° |
| 2026-05-07 21:35 | 41.92415 | 101.29334 | 36956 ft | 515 kts | 109° |
| 2026-05-07 21:36 | 41.89968 | 101.38439 | 36954 ft | 515 kts | 112° |
| 2026-05-07 21:36 | 41.87419 | 101.47408 | 36957 ft | 515 kts | 111° |
| 2026-05-07 21:37 | 41.84972 | 101.56515 | 36960 ft | 515 kts | 110° |
| 2026-05-07 21:37 | 41.82509 | 101.65520 | 36958 ft | 515 kts | 111° |
| 2026-05-07 21:38 | 41.80001 | 101.74524 | 36940 ft | 516 kts | 111° |
| 2026-05-07 21:38 | 41.77503 | 101.83571 | 36960 ft | 520 kts | 111° |
| 2026-05-07 21:39 | 41.74979 | 101.92648 | 36961 ft | 520 kts | 111° |
| 2026-05-07 21:39 | 41.72437 | 102.01732 | 36960 ft | 520 kts | 111° |
| 2026-05-07 21:40 | 41.69899 | 102.10796 | 36961 ft | 520 kts | 111° |
| 2026-05-07 21:40 | 41.67356 | 102.19843 | 36964 ft | 519 kts | 111° |
| 2026-05-07 21:41 | 41.64790 | 102.28933 | 36963 ft | 519 kts | 111° |
| 2026-05-07 21:41 | 41.62234 | 102.37958 | 36964 ft | 519 kts | 112° |
| 2026-05-07 21:42 | 41.59670 | 102.46974 | 36963 ft | 519 kts | 112° |
| 2026-05-07 21:42 | 41.57100 | 102.55987 | 36965 ft | 519 kts | 112° |
| 2026-05-07 21:43 | 41.54520 | 102.65001 | 36969 ft | 519 kts | 112° |
| 2026-05-07 21:43 | 41.51926 | 102.74005 | 36966 ft | 519 kts | 112° |
| 2026-05-07 21:44 | 41.49360 | 102.83046 | 36976 ft | 520 kts | 110° |
| 2026-05-07 21:44 | 41.47408 | 102.90614 | 36975 ft | 520 kts | 109° |
| 2026-05-07 21:45 | 41.45077 | 102.99748 | 36968 ft | 523 kts | 110° |
| 2026-05-07 21:45 | 41.42535 | 103.08849 | 36977 ft | 525 kts | 112° |
| 2026-05-07 21:46 | 41.39953 | 103.17951 | 36986 ft | 526 kts | 111° |
| 2026-05-07 21:46 | 41.37441 | 103.27102 | 36982 ft | 526 kts | 111° |
| 2026-05-07 21:47 | 41.34901 | 103.36247 | 36982 ft | 526 kts | 111° |
| 2026-05-07 21:47 | 41.32339 | 103.45373 | 36982 ft | 526 kts | 111° |
| 2026-05-07 21:48 | 41.29767 | 103.54554 | 36995 ft | 526 kts | 111° |
| 2026-05-07 21:48 | 41.27207 | 103.63666 | 36991 ft | 525 kts | 111° |
| 2026-05-07 21:49 | 41.24639 | 103.72759 | 36988 ft | 525 kts | 111° |
| 2026-05-07 21:49 | 41.22066 | 103.81825 | 36988 ft | 525 kts | 112° |
| 2026-05-07 21:50 | 41.19460 | 103.90880 | 36994 ft | 526 kts | 112° |
| 2026-05-07 21:50 | 41.16868 | 103.99959 | 36999 ft | 526 kts | 111° |
| 2026-05-07 21:51 | 41.14304 | 104.09072 | 37000 ft | 526 kts | 111° |
| 2026-05-07 21:51 | 41.11702 | 104.18129 | 36998 ft | 526 kts | 112° |
| 2026-05-07 21:52 | 41.09062 | 104.27254 | 36979 ft | 527 kts | 112° |
| 2026-05-07 21:52 | 41.06435 | 104.36370 | 37000 ft | 530 kts | 112° |
| 2026-05-07 21:53 | 41.03779 | 104.45493 | 37011 ft | 531 kts | 112° |
| 2026-05-07 21:53 | 41.01179 | 104.54641 | 37026 ft | 531 kts | 111° |
| 2026-05-07 21:54 | 40.98566 | 104.63780 | 37024 ft | 531 kts | 112° |
| 2026-05-07 21:54 | 40.95954 | 104.73004 | 37035 ft | 531 kts | 111° |
| 2026-05-07 21:55 | 40.93407 | 104.82179 | 37035 ft | 531 kts | 111° |
| 2026-05-07 21:55 | 40.90848 | 104.91331 | 37034 ft | 531 kts | 111° |
| 2026-05-07 21:56 | 40.88274 | 105.00487 | 37044 ft | 532 kts | 111° |
| 2026-05-07 21:56 | 40.85698 | 105.09643 | 37053 ft | 532 kts | 111° |
| 2026-05-07 21:57 | 40.83114 | 105.18794 | 37054 ft | 532 kts | 111° |
| 2026-05-07 21:57 | 40.80500 | 105.28017 | 37056 ft | 532 kts | 111° |
| 2026-05-07 21:58 | 40.77902 | 105.37155 | 37059 ft | 532 kts | 112° |
| 2026-05-07 21:58 | 40.75292 | 105.46297 | 37059 ft | 532 kts | 112° |
| 2026-05-07 21:59 | 40.72675 | 105.55437 | 37058 ft | 532 kts | 112° |
| 2026-05-07 21:59 | 40.70053 | 105.64565 | 37043 ft | 532 kts | 112° |
| 2026-05-07 22:00 | 40.67400 | 105.73782 | 37062 ft | 536 kts | 112° |
| 2026-05-07 22:00 | 40.64741 | 105.82952 | 37068 ft | 536 kts | 112° |
| 2026-05-07 22:01 | 40.62074 | 105.92134 | 37068 ft | 536 kts | 112° |
| 2026-05-07 22:01 | 40.59406 | 106.01293 | 37072 ft | 537 kts | 112° |
| 2026-05-07 22:02 | 40.56723 | 106.10464 | 37071 ft | 538 kts | 112° |
| 2026-05-07 22:02 | 40.54025 | 106.19662 | 37072 ft | 539 kts | 112° |
| 2026-05-07 22:03 | 40.51327 | 106.28829 | 37075 ft | 538 kts | 112° |
| 2026-05-07 22:03 | 40.48596 | 106.38067 | 37082 ft | 539 kts | 113° |
| 2026-05-07 22:04 | 40.45876 | 106.47234 | 37073 ft | 539 kts | 113° |
| 2026-05-07 22:04 | 40.43145 | 106.56411 | 37071 ft | 539 kts | 113° |
| 2026-05-07 22:05 | 40.40412 | 106.65566 | 37073 ft | 539 kts | 113° |
| 2026-05-07 22:05 | 40.37669 | 106.74724 | 37075 ft | 540 kts | 113° |
| 2026-05-07 22:06 | 40.34909 | 106.83897 | 37075 ft | 540 kts | 113° |
| 2026-05-07 22:06 | 40.32335 | 106.93152 | 37058 ft | 541 kts | 103° |
| 2026-05-07 22:07 | 40.31898 | 106.98018 | 37043 ft | 538 kts | 86° |
| 2026-05-07 22:07 | 40.32288 | 107.02930 | 37087 ft | 535 kts | 77° |
| 2026-05-07 22:07 | 40.33483 | 107.12598 | 37074 ft | 540 kts | 81° |
| 2026-05-07 22:08 | 40.34254 | 107.22391 | 37071 ft | 540 kts | 81° |
| 2026-05-07 22:08 | 40.35344 | 107.32131 | 37069 ft | 539 kts | 77° |
| 2026-05-07 22:09 | 40.36612 | 107.41814 | 37083 ft | 540 kts | 78° |
| 2026-05-07 22:09 | 40.37756 | 107.51549 | 37079 ft | 541 kts | 79° |
| 2026-05-07 22:10 | 40.38915 | 107.61297 | 37075 ft | 541 kts | 78° |
| 2026-05-07 22:10 | 40.40106 | 107.71025 | 37101 ft | 541 kts | 78° |
| 2026-05-07 22:11 | 40.41264 | 107.80734 | 37084 ft | 536 kts | 79° |
| 2026-05-07 22:11 | 40.42403 | 107.90377 | 37078 ft | 535 kts | 78° |
| 2026-05-07 22:12 | 40.43416 | 107.98447 | 37077 ft | 534 kts | 77° |
| 2026-05-07 22:12 | 40.44585 | 108.08073 | 37077 ft | 535 kts | 81° |
| 2026-05-07 22:13 | 40.45484 | 108.17779 | 37080 ft | 535 kts | 80° |
| 2026-05-07 22:13 | 40.46573 | 108.27432 | 37081 ft | 534 kts | 78° |
| 2026-05-07 22:14 | 40.47728 | 108.37140 | 37077 ft | 535 kts | 79° |
| 2026-05-07 22:14 | 40.48796 | 108.46804 | 37108 ft | 534 kts | 79° |
| 2026-05-07 22:15 | 40.49866 | 108.56389 | 37088 ft | 527 kts | 79° |
| 2026-05-07 22:15 | 40.50940 | 108.65891 | 37090 ft | 526 kts | 79° |
| 2026-05-07 22:16 | 40.51992 | 108.75404 | 37097 ft | 526 kts | 79° |
| 2026-05-07 22:16 | 40.53034 | 108.84902 | 37095 ft | 525 kts | 79° |
| 2026-05-07 22:17 | 40.54074 | 108.94393 | 37112 ft | 525 kts | 79° |
| 2026-05-07 22:17 | 40.55104 | 109.03893 | 37098 ft | 525 kts | 79° |
| 2026-05-07 22:18 | 40.56631 | 109.18141 | 37114 ft | 526 kts | 79° |
| 2026-05-07 22:19 | 40.57645 | 109.27665 | 37124 ft | 525 kts | 79° |
| 2026-05-07 22:19 | 40.58651 | 109.37216 | 37120 ft | 518 kts | 79° |
| 2026-05-07 22:20 | 40.59627 | 109.46568 | 37145 ft | 521 kts | 79° |
| 2026-05-07 22:20 | 40.60613 | 109.56039 | 37129 ft | 525 kts | 79° |
| 2026-05-07 22:21 | 40.61596 | 109.65566 | 37121 ft | 526 kts | 79° |
| 2026-05-07 22:21 | 40.62569 | 109.75102 | 37126 ft | 525 kts | 79° |
| 2026-05-07 22:22 | 40.63535 | 109.84650 | 37120 ft | 526 kts | 79° |
| 2026-05-07 22:22 | 40.64492 | 109.94194 | 37116 ft | 526 kts | 80° |
| 2026-05-07 22:23 | 40.64845 | 110.03898 | 37127 ft | 529 kts | 90° |
| 2026-05-07 22:23 | 40.64491 | 110.13577 | 37125 ft | 529 kts | 89° |
| 2026-05-07 22:24 | 40.64504 | 110.23236 | 37122 ft | 528 kts | 86° |
| 2026-05-07 22:24 | 40.64552 | 110.32913 | 37115 ft | 529 kts | 88° |
| 2026-05-07 22:25 | 40.64440 | 110.42598 | 37121 ft | 529 kts | 89° |
| 2026-05-07 22:25 | 40.64358 | 110.52289 | 37134 ft | 529 kts | 88° |
| 2026-05-07 22:26 | 40.64272 | 110.61982 | 37135 ft | 530 kts | 89° |
| 2026-05-07 22:26 | 40.64176 | 110.71756 | 37118 ft | 530 kts | 88° |
| 2026-05-07 22:27 | 40.64091 | 110.81453 | 37133 ft | 529 kts | 88° |
| 2026-05-07 22:27 | 40.64002 | 110.91096 | 37137 ft | 531 kts | 88° |
| 2026-05-07 22:28 | 40.63891 | 111.00884 | 37138 ft | 532 kts | 89° |
| 2026-05-07 22:28 | 40.63778 | 111.10619 | 37137 ft | 532 kts | 89° |
| 2026-05-07 22:29 | 40.63654 | 111.20354 | 37142 ft | 532 kts | 88° |
| 2026-05-07 22:29 | 40.63486 | 111.30096 | 37142 ft | 533 kts | 89° |
| 2026-05-07 22:30 | 40.63306 | 111.39847 | 37137 ft | 532 kts | 89° |
| 2026-05-07 22:30 | 40.63164 | 111.49592 | 37141 ft | 532 kts | 88° |
| 2026-05-07 22:31 | 40.63012 | 111.59404 | 37149 ft | 533 kts | 89° |
| 2026-05-07 22:31 | 40.62845 | 111.69152 | 37145 ft | 532 kts | 89° |
| 2026-05-07 22:32 | 40.62676 | 111.78894 | 37145 ft | 532 kts | 89° |
| 2026-05-07 22:32 | 40.62498 | 111.88655 | 37149 ft | 535 kts | 89° |
| 2026-05-07 22:33 | 40.62255 | 111.98454 | 37152 ft | 536 kts | 89° |
| 2026-05-07 22:33 | 40.62012 | 112.08263 | 37147 ft | 536 kts | 89° |
| 2026-05-07 22:34 | 40.61811 | 112.18064 | 36873 ft | 538 kts | 89° |
| 2026-05-07 22:34 | 40.61706 | 112.22981 | 36486 ft | 534 kts | 89° |
| 2026-05-07 22:34 | 40.61594 | 112.27847 | 36120 ft | 530 kts | 89° |
| 2026-05-07 22:34 | 40.61478 | 112.32687 | 35746 ft | 526 kts | 89° |
| 2026-05-07 22:35 | 40.61365 | 112.37480 | 35386 ft | 522 kts | 88° |
| 2026-05-07 22:35 | 40.61255 | 112.42241 | 35018 ft | 518 kts | 88° |
| 2026-05-07 22:35 | 40.61139 | 112.46956 | 34671 ft | 515 kts | 89° |
| 2026-05-07 22:35 | 40.60963 | 112.51659 | 34310 ft | 513 kts | 90° |
| 2026-05-07 22:36 | 40.60699 | 112.56337 | 33932 ft | 510 kts | 92° |
| 2026-05-07 22:36 | 40.60386 | 112.61025 | 33516 ft | 507 kts | 92° |
| 2026-05-07 22:36 | 40.60084 | 112.65639 | 33113 ft | 503 kts | 91° |
| 2026-05-07 22:36 | 40.59820 | 112.70198 | 32716 ft | 500 kts | 91° |
| 2026-05-07 22:37 | 40.59517 | 112.74742 | 32330 ft | 497 kts | 92° |
| 2026-05-07 22:37 | 40.59171 | 112.79261 | 31961 ft | 494 kts | 92° |
| 2026-05-07 22:37 | 40.58842 | 112.83740 | 31587 ft | 492 kts | 91° |
| 2026-05-07 22:37 | 40.58541 | 112.88212 | 31219 ft | 490 kts | 91° |
| 2026-05-07 22:38 | 40.58253 | 112.92668 | 30849 ft | 487 kts | 91° |
| 2026-05-07 22:38 | 40.57964 | 112.97087 | 30487 ft | 484 kts | 91° |
| 2026-05-07 22:38 | 40.57668 | 113.01488 | 30126 ft | 481 kts | 91° |
| 2026-05-07 22:38 | 40.57373 | 113.05864 | 29691 ft | 478 kts | 91° |
| 2026-05-07 22:39 | 40.57083 | 113.10193 | 29271 ft | 474 kts | 91° |
| 2026-05-07 22:39 | 40.56792 | 113.14509 | 28874 ft | 471 kts | 91° |
| 2026-05-07 22:39 | 40.56506 | 113.18781 | 28467 ft | 468 kts | 91° |
| 2026-05-07 22:39 | 40.56222 | 113.23027 | 28069 ft | 464 kts | 91° |
| 2026-05-07 22:40 | 40.55940 | 113.27228 | 27678 ft | 460 kts | 91° |
| 2026-05-07 22:40 | 40.55656 | 113.31401 | 27289 ft | 456 kts | 91° |
| 2026-05-07 22:40 | 40.55371 | 113.35540 | 26903 ft | 453 kts | 91° |
| 2026-05-07 22:40 | 40.55086 | 113.39647 | 26523 ft | 449 kts | 91° |
| 2026-05-07 22:41 | 40.54800 | 113.43769 | 26158 ft | 445 kts | 91° |
| 2026-05-07 22:41 | 40.54517 | 113.47806 | 25784 ft | 442 kts | 91° |
| 2026-05-07 22:41 | 40.54240 | 113.51756 | 25432 ft | 438 kts | 91° |
| 2026-05-07 22:41 | 40.54051 | 113.54441 | 25186 ft | 436 kts | 91° |
| 2026-05-07 22:42 | 40.53679 | 113.59709 | 24713 ft | 431 kts | 91° |
| 2026-05-07 22:42 | 40.53495 | 113.62310 | 24484 ft | 429 kts | 91° |
| 2026-05-07 22:42 | 40.53216 | 113.66186 | 24145 ft | 425 kts | 92° |
| 2026-05-07 22:42 | 40.52934 | 113.70045 | 23795 ft | 421 kts | 92° |
| 2026-05-07 22:43 | 40.52654 | 113.73857 | 23393 ft | 417 kts | 92° |
| 2026-05-07 22:43 | 40.52380 | 113.77627 | 22999 ft | 414 kts | 91° |
| 2026-05-07 22:43 | 40.52113 | 113.81390 | 22590 ft | 411 kts | 91° |
| 2026-05-07 22:43 | 40.51847 | 113.85103 | 22202 ft | 408 kts | 91° |
| 2026-05-07 22:44 | 40.51575 | 113.88800 | 21820 ft | 405 kts | 92° |
| 2026-05-07 22:44 | 40.51299 | 113.92479 | 21423 ft | 402 kts | 91° |
| 2026-05-07 22:44 | 40.51026 | 113.96126 | 21046 ft | 399 kts | 91° |
| 2026-05-07 22:44 | 40.50778 | 113.99740 | 20661 ft | 396 kts | 90° |
| 2026-05-07 22:45 | 40.50592 | 114.03331 | 20292 ft | 393 kts | 89° |
| 2026-05-07 22:45 | 40.50442 | 114.06911 | 19933 ft | 390 kts | 89° |
| 2026-05-07 22:45 | 40.50294 | 114.10452 | 19571 ft | 388 kts | 88° |
| 2026-05-07 22:45 | 40.50135 | 114.13980 | 19221 ft | 385 kts | 89° |
| 2026-05-07 22:46 | 40.49968 | 114.17531 | 18853 ft | 383 kts | 89° |
| 2026-05-07 22:46 | 40.49810 | 114.20965 | 18508 ft | 380 kts | 88° |
| 2026-05-07 22:46 | 40.49656 | 114.24468 | 18095 ft | 378 kts | 88° |
| 2026-05-07 22:46 | 40.49512 | 114.27906 | 17688 ft | 376 kts | 88° |
| 2026-05-07 22:47 | 40.49370 | 114.31316 | 17300 ft | 374 kts | 88° |
| 2026-05-07 22:47 | 40.49225 | 114.34714 | 16913 ft | 372 kts | 88° |
| 2026-05-07 22:47 | 40.49074 | 114.38104 | 16516 ft | 370 kts | 89° |
| 2026-05-07 22:47 | 40.48918 | 114.41467 | 16149 ft | 368 kts | 88° |
| 2026-05-07 22:48 | 40.48763 | 114.44811 | 15766 ft | 367 kts | 88° |
| 2026-05-07 22:48 | 40.48613 | 114.48148 | 15392 ft | 365 kts | 88° |
| 2026-05-07 22:48 | 40.48468 | 114.51479 | 15019 ft | 363 kts | 88° |
| 2026-05-07 22:48 | 40.48326 | 114.54787 | 14655 ft | 362 kts | 88° |
| 2026-05-07 22:49 | 40.48179 | 114.58072 | 14298 ft | 360 kts | 88° |
| 2026-05-07 22:49 | 40.48028 | 114.61355 | 13918 ft | 359 kts | 88° |
| 2026-05-07 22:49 | 40.47878 | 114.64609 | 13525 ft | 356 kts | 88° |
| 2026-05-07 22:49 | 40.47733 | 114.67851 | 13131 ft | 354 kts | 89° |
| 2026-05-07 22:50 | 40.47582 | 114.71066 | 12737 ft | 352 kts | 89° |
| 2026-05-07 22:50 | 40.47424 | 114.74264 | 12349 ft | 349 kts | 90° |
| 2026-05-07 22:50 | 40.47269 | 114.77433 | 11968 ft | 347 kts | 90° |
| 2026-05-07 22:50 | 40.47116 | 114.80629 | 11582 ft | 345 kts | 90° |
| 2026-05-07 22:51 | 40.46982 | 114.83750 | 11206 ft | 342 kts | 90° |
| 2026-05-07 22:51 | 40.46846 | 114.86864 | 10836 ft | 340 kts | 90° |
| 2026-05-07 22:51 | 40.46697 | 114.89951 | 10472 ft | 337 kts | 91° |
| 2026-05-07 22:51 | 40.46533 | 114.93005 | 10113 ft | 335 kts | 91° |
| 2026-05-07 22:52 | 40.46365 | 114.96051 | 9715 ft | 333 kts | 92° |
| 2026-05-07 22:52 | 40.46204 | 114.99084 | 9330 ft | 331 kts | 92° |
| 2026-05-07 22:52 | 40.46055 | 115.02081 | 8937 ft | 328 kts | 91° |
| 2026-05-07 22:52 | 40.45913 | 115.05047 | 8560 ft | 325 kts | 91° |
| 2026-05-07 22:53 | 40.45779 | 115.08001 | 8180 ft | 322 kts | 91° |
| 2026-05-07 22:53 | 40.45644 | 115.10925 | 7812 ft | 319 kts | 92° |
| 2026-05-07 22:53 | 40.45499 | 115.13822 | 7435 ft | 317 kts | 93° |
| 2026-05-07 22:53 | 40.45348 | 115.16686 | 7066 ft | 314 kts | 93° |
| 2026-05-07 22:54 | 40.45195 | 115.19536 | 6704 ft | 312 kts | 94° |
| 2026-05-07 22:54 | 40.45048 | 115.22374 | 6322 ft | 309 kts | 94° |
| 2026-05-07 22:54 | 40.44902 | 115.25176 | 5940 ft | 306 kts | 94° |
| 2026-05-07 22:54 | 40.44756 | 115.27943 | 5556 ft | 302 kts | 94° |
| 2026-05-07 22:55 | 40.44607 | 115.30677 | 5179 ft | 298 kts | 95° |
| 2026-05-07 22:55 | 40.44462 | 115.33382 | 4795 ft | 295 kts | 94° |
| 2026-05-07 22:55 | 40.44315 | 115.36104 | 4401 ft | 295 kts | 94° |
| 2026-05-07 22:55 | 40.44171 | 115.38749 | 4030 ft | 293 kts | 94° |
| 2026-05-07 22:56 | 40.44031 | 115.41436 | 3643 ft | 290 kts | 94° |
| 2026-05-07 22:56 | 40.43899 | 115.44063 | 3343 ft | 286 kts | 94° |
| 2026-05-07 22:56 | 40.43771 | 115.46627 | 3204 ft | 285 kts | 94° |
| 2026-05-07 22:56 | 40.43493 | 115.49223 | 3084 ft | 284 kts | 105° |
| 2026-05-07 22:57 | 40.42663 | 115.51554 | 2974 ft | 283 kts | 127° |
| 2026-05-07 22:57 | 40.41224 | 115.53276 | 2975 ft | 281 kts | 147° |
| 2026-05-07 22:57 | 40.39494 | 115.54483 | 3069 ft | 282 kts | 155° |
| 2026-05-07 22:57 | 40.37707 | 115.55573 | 3100 ft | 283 kts | 154° |
| 2026-05-07 22:58 | 40.35965 | 115.56781 | 3096 ft | 283 kts | 150° |
| 2026-05-07 22:58 | 40.34281 | 115.58126 | 3091 ft | 284 kts | 148° |
| 2026-05-07 22:58 | 40.32586 | 115.59442 | 3088 ft | 283 kts | 151° |
| 2026-05-07 22:58 | 40.30886 | 115.60603 | 3112 ft | 273 kts | 154° |
| 2026-05-07 22:59 | 40.29284 | 115.61620 | 3227 ft | 230 kts | 155° |
| 2026-05-07 22:59 | 40.28036 | 115.62426 | 3759 ft | 176 kts | 154° |
| 2026-05-07 22:59 | 40.26922 | 115.63180 | 4472 ft | 191 kts | 154° |
| 2026-05-07 22:59 | 40.25642 | 115.64053 | 5360 ft | 224 kts | 155° |
| 2026-05-07 23:00 | 40.24147 | 115.65026 | 6245 ft | 255 kts | 156° |
| 2026-05-07 23:00 | 40.22457 | 115.66083 | 6898 ft | 277 kts | 156° |
| 2026-05-07 23:00 | 40.20693 | 115.67166 | 7935 ft | 285 kts | 157° |
| 2026-05-07 23:00 | 40.18870 | 115.68295 | 9152 ft | 296 kts | 156° |
| 2026-05-07 23:01 | 40.16959 | 115.69494 | 9784 ft | 311 kts | 156° |
| 2026-05-07 23:01 | 40.14991 | 115.70735 | 9528 ft | 314 kts | 156° |
| 2026-05-07 23:01 | 40.13020 | 115.71985 | 8924 ft | 316 kts | 155° |
| 2026-05-07 23:01 | 40.11045 | 115.73254 | 8474 ft | 308 kts | 155° |
| 2026-05-07 23:02 | 40.09129 | 115.74460 | 8214 ft | 304 kts | 156° |
| 2026-05-07 23:02 | 40.07227 | 115.75650 | 8097 ft | 303 kts | 156° |
| 2026-05-07 23:02 | 40.05317 | 115.76847 | 8080 ft | 303 kts | 156° |
| 2026-05-07 23:02 | 40.03426 | 115.78031 | 8162 ft | 302 kts | 155° |
| 2026-05-07 23:03 | 40.01604 | 115.79375 | 8446 ft | 302 kts | 143° |
| 2026-05-07 23:03 | 40.00100 | 115.81283 | 8935 ft | 305 kts | 128° |
| 2026-05-07 23:03 | 39.98829 | 115.83526 | 9298 ft | 311 kts | 124° |
| 2026-05-07 23:03 | 39.97499 | 115.85788 | 9150 ft | 315 kts | 129° |
| 2026-05-07 23:04 | 39.96027 | 115.87884 | 8768 ft | 312 kts | 134° |
| 2026-05-07 23:04 | 39.94489 | 115.89858 | 8393 ft | 309 kts | 135° |
| 2026-05-07 23:04 | 39.92988 | 115.91833 | 8007 ft | 306 kts | 133° |
| 2026-05-07 23:04 | 39.91581 | 115.93902 | 7617 ft | 302 kts | 129° |
| 2026-05-07 23:05 | 39.90324 | 115.95989 | 7455 ft | 284 kts | 126° |
| 2026-05-07 23:05 | 39.89173 | 115.97981 | 7074 ft | 268 kts | 126° |
| 2026-05-07 23:05 | 39.88048 | 115.99871 | 6706 ft | 262 kts | 128° |
| 2026-05-07 23:05 | 39.86910 | 116.01700 | 6315 ft | 259 kts | 129° |
| 2026-05-07 23:06 | 39.85748 | 116.03519 | 5886 ft | 256 kts | 129° |
| 2026-05-07 23:06 | 39.84620 | 116.05290 | 5388 ft | 253 kts | 129° |
| 2026-05-07 23:06 | 39.83516 | 116.07051 | 4893 ft | 248 kts | 129° |
| 2026-05-07 23:06 | 39.82441 | 116.08779 | 4369 ft | 245 kts | 129° |
| 2026-05-07 23:07 | 39.81375 | 116.10496 | 3866 ft | 242 kts | 129° |
| 2026-05-07 23:07 | 39.80329 | 116.12178 | 3471 ft | 236 kts | 129° |
| 2026-05-07 23:07 | 39.79296 | 116.13837 | 3296 ft | 235 kts | 130° |
| 2026-05-07 23:07 | 39.78263 | 116.15485 | 3014 ft | 235 kts | 130° |
| 2026-05-07 23:08 | 39.77235 | 116.17117 | 2638 ft | 232 kts | 130° |
| 2026-05-07 23:08 | 39.76220 | 116.18733 | 2360 ft | 229 kts | 130° |
| 2026-05-07 23:08 | 39.75207 | 116.20332 | 2204 ft | 230 kts | 130° |
| 2026-05-07 23:08 | 39.74185 | 116.21940 | 2009 ft | 229 kts | 129° |
| 2026-05-07 23:09 | 39.73183 | 116.23537 | 1894 ft | 227 kts | 129° |
| 2026-05-07 23:09 | 39.72183 | 116.25154 | 1881 ft | 225 kts | 129° |
| 2026-05-07 23:09 | 39.71223 | 116.26706 | 1988 ft | 218 kts | 129° |
| 2026-05-07 23:09 | 39.70265 | 116.28240 | 1979 ft | 218 kts | 129° |
| 2026-05-07 23:10 | 39.69310 | 116.29772 | 1962 ft | 218 kts | 129° |
| 2026-05-07 23:10 | 39.68354 | 116.31304 | 1956 ft | 218 kts | 129° |
| 2026-05-07 23:10 | 39.67393 | 116.32826 | 1955 ft | 218 kts | 130° |
| 2026-05-07 23:10 | 39.66425 | 116.34341 | 1954 ft | 218 kts | 130° |
| 2026-05-07 23:11 | 39.65384 | 116.35755 | 1941 ft | 218 kts | 141° |
| 2026-05-07 23:11 | 39.64254 | 116.36820 | 1954 ft | 218 kts | 139° |
| 2026-05-07 23:11 | 39.63416 | 116.38445 | 1929 ft | 220 kts | 111° |
| 2026-05-07 23:11 | 39.63271 | 116.40404 | 1939 ft | 221 kts | 83° |
| 2026-05-07 23:12 | 39.63713 | 116.42298 | 1949 ft | 220 kts | 66° |
| 2026-05-07 23:12 | 39.64505 | 116.43996 | 1960 ft | 220 kts | 54° |
| 2026-05-07 23:12 | 39.65144 | 116.45041 | 1968 ft | 219 kts | 49° |
| 2026-05-07 23:12 | 39.66165 | 116.46519 | 1969 ft | 220 kts | 51° |
| 2026-05-07 23:13 | 39.67020 | 116.48166 | 1972 ft | 220 kts | 58° |
| 2026-05-07 23:13 | 39.67781 | 116.49916 | 1978 ft | 220 kts | 61° |
| 2026-05-07 23:13 | 39.68498 | 116.51664 | 1978 ft | 220 kts | 62° |
| 2026-05-07 23:13 | 39.69211 | 116.53429 | 1971 ft | 220 kts | 62° |
| 2026-05-07 23:14 | 39.69919 | 116.55188 | 1966 ft | 220 kts | 62° |
| 2026-05-07 23:14 | 39.70621 | 116.56944 | 1971 ft | 219 kts | 61° |
| 2026-05-07 23:14 | 39.71308 | 116.58727 | 1965 ft | 221 kts | 62° |
| 2026-05-07 23:14 | 39.72006 | 116.60492 | 1955 ft | 221 kts | 58° |
| 2026-05-07 23:15 | 39.73041 | 116.61945 | 1939 ft | 219 kts | 35° |
| 2026-05-07 23:15 | 39.74435 | 116.62660 | 1921 ft | 216 kts | 5° |
| 2026-05-07 23:15 | 39.75894 | 116.62359 | 1909 ft | 213 kts | 339° |
| 2026-05-07 23:15 | 39.77282 | 116.61746 | 1939 ft | 201 kts | 346° |
| 2026-05-07 23:16 | 39.78560 | 116.61620 | 1893 ft | 173 kts | 356° |
| 2026-05-07 23:16 | 39.79732 | 116.61539 | 1902 ft | 162 kts | 352° |
| 2026-05-07 23:16 | 39.80852 | 116.61367 | 1933 ft | 159 kts | 351° |
| 2026-05-07 23:16 | 39.81926 | 116.61174 | 2010 ft | 159 kts | 349° |
| 2026-05-07 23:17 | 39.83034 | 116.60986 | 1939 ft | 158 kts | 352° |
| 2026-05-07 23:17 | 39.84145 | 116.60936 | 1555 ft | 162 kts | 358° |
| 2026-05-07 23:17 | 39.85225 | 116.60839 | 1375 ft | 153 kts | 349° |
| 2026-05-07 23:17 | 39.86265 | 116.60579 | 1540 ft | 153 kts | 348° |
| 2026-05-07 23:18 | 39.87330 | 116.60387 | 1737 ft | 157 kts | 351° |
| 2026-05-07 23:18 | 39.88414 | 116.60241 | 1618 ft | 156 kts | 352° |
| 2026-05-07 23:18 | 39.89483 | 116.60092 | 1625 ft | 154 kts | 352° |
| 2026-05-07 23:18 | 39.90554 | 116.59943 | 1689 ft | 155 kts | 351° |
| 2026-05-07 23:19 | 39.91626 | 116.59772 | 1675 ft | 155 kts | 351° |
| 2026-05-07 23:19 | 39.92694 | 116.59618 | 1658 ft | 154 kts | 351° |
| 2026-05-07 23:19 | 39.93766 | 116.59452 | 1677 ft | 155 kts | 351° |
| 2026-05-07 23:19 | 39.94833 | 116.59284 | 1657 ft | 155 kts | 351° |
| 2026-05-07 23:20 | 39.95902 | 116.59132 | 1662 ft | 155 kts | 352° |
| 2026-05-07 23:20 | 39.96975 | 116.58968 | 1659 ft | 154 kts | 350° |
| 2026-05-07 23:20 | 39.98044 | 116.58777 | 1655 ft | 155 kts | 350° |
| 2026-05-07 23:20 | 39.99107 | 116.58603 | 1650 ft | 155 kts | 352° |
| 2026-05-07 23:21 | 40.00188 | 116.58489 | 1538 ft | 156 kts | 353° |
| 2026-05-07 23:21 | 40.01256 | 116.58324 | 1327 ft | 154 kts | 351° |
| 2026-05-07 23:21 | 40.02317 | 116.58141 | 1118 ft | 153 kts | 352° |
| 2026-05-07 23:21 | 40.03376 | 116.57991 | 924 ft | 153 kts | 353° |
| 2026-05-07 23:22 | 40.04444 | 116.57821 | 713 ft | 152 kts | 352° |
| 2026-05-07 23:22 | 40.05495 | 116.57663 | 515 ft | 153 kts | 354° |
| 2026-05-07 23:22 | 40.06542 | 116.57531 | 309 ft | 149 kts | 354° |
| 2026-05-07 23:22 | 40.07564 | 116.57375 | 138 ft | 141 kts | 353° |
| 2026-05-07 23:23 | 40.08353 | 116.57260 | 115 ft | 81 kts | 350° |
| 2026-05-07 23:23 | 40.08735 | 116.57243 | 115 ft | 39 kts | 15° |
| 2026-05-07 23:23 | 40.08898 | 116.57313 | 118 ft | 0 kts | 24° |
| 2026-05-07 23:24 | 40.08903 | 116.57337 | 115 ft | 24 kts | 80° |
| 2026-05-07 23:24 | 40.08924 | 116.57625 | 117 ft | 33 kts | 84° |
| 2026-05-07 23:24 | 40.08953 | 116.57935 | 117 ft | 35 kts | 83° |
| 2026-05-07 23:24 | 40.08983 | 116.58259 | 121 ft | 36 kts | 83° |
| 2026-05-07 23:25 | 40.09013 | 116.58593 | 119 ft | 38 kts | 83° |
| 2026-05-07 23:25 | 40.09040 | 116.58883 | 120 ft | 29 kts | 83° |
| 2026-05-07 23:25 | 40.08986 | 116.59067 | 119 ft | 20 kts | 89° |
| 2026-05-07 23:25 | 40.08987 | 116.59265 | 120 ft | 24 kts | 92° |
| 2026-05-07 23:26 | 40.08926 | 116.59448 | 118 ft | 23 kts | 126° |
| 2026-05-07 23:26 | 40.08892 | 116.59655 | 121 ft | 25 kts | 83° |
| 2026-05-07 23:26 | 40.08879 | 116.59843 | 119 ft | 11 kts | 158° |
| 2026-05-07 23:26 | 40.08754 | 116.59860 | 119 ft | 30 kts | 171° |
| 2026-05-07 23:27 | 40.08302 | 116.59932 | 120 ft | 35 kts | 173° |
| 2026-05-07 23:27 | 40.08051 | 116.59969 | 118 ft | 38 kts | 174° |
| 2026-05-07 23:27 | 40.07789 | 116.60010 | 117 ft | 34 kts | 173° |
| 2026-05-07 23:28 | 40.07635 | 116.60079 | 116 ft | 20 kts | 124° |
| 2026-05-07 23:28 | 40.07564 | 116.60246 | 116 ft | 22 kts | 129° |
| 2026-05-07 23:28 | 40.07429 | 116.60335 | 117 ft | 23 kts | 170° |
| 2026-05-07 23:28 | 40.07279 | 116.60383 | 115 ft | 15 kts | 126° |
| 2026-05-07 23:29 | 40.07271 | 116.60480 | 114 ft | 0 kts | 86° |